<?xml version="1.0" encoding="utf-8"?>
<gpx xmlns:xsi="http://www.w3.org/2001/XMLSchema-instance" xmlns:xsd="http://www.w3.org/2001/XMLSchema" version="1.1" creator="Shapelink.com" xmlns="http://www.topografix.com/GPX/1/1" xmlns:gpxtpx="http://www.garmin.com/xmlschemas/TrackPointExtension/v1">
  <metadata>
    <name>Löpning 16.99 km, 2011-08-30</name>
    <desc></desc>
    <author><name>Alexander Engvall</name></author> 
    <time>2011-08-30T19:57:53Z</time>
  </metadata>
  <trk>
    <name>Löpning 16.99 km, 2011-08-30</name>
    <trkseg>
      <trkpt lat="59.4578806" lon="17.8043303">
        <ele>25.1317</ele>
        <time>2011-08-30T19:57:53Z</time>
      </trkpt>
      <trkpt lat="59.4577564" lon="17.8044645">
        <ele>27.5349</ele>
        <time>2011-08-30T19:58:00Z</time>
      </trkpt>
      <trkpt lat="59.4576293" lon="17.8045995">
        <ele>27.5349</ele>
        <time>2011-08-30T19:58:05Z</time>
      </trkpt>
      <trkpt lat="59.4575091" lon="17.8047566">
        <ele>28.4962</ele>
        <time>2011-08-30T19:58:10Z</time>
      </trkpt>
      <trkpt lat="59.4574579" lon="17.8049301">
        <ele>28.9769</ele>
        <time>2011-08-30T19:58:14Z</time>
      </trkpt>
      <trkpt lat="59.4573454" lon="17.8051825">
        <ele>28.4962</ele>
        <time>2011-08-30T19:58:20Z</time>
      </trkpt>
      <trkpt lat="59.4572746" lon="17.8053709">
        <ele>28.4962</ele>
        <time>2011-08-30T19:58:24Z</time>
      </trkpt>
      <trkpt lat="59.4573192" lon="17.8056697">
        <ele>29.4575</ele>
        <time>2011-08-30T19:58:30Z</time>
      </trkpt>
      <trkpt lat="59.4574513" lon="17.8057632">
        <ele>30.4188</ele>
        <time>2011-08-30T19:58:35Z</time>
      </trkpt>
      <trkpt lat="59.4576314" lon="17.8058403">
        <ele>32.8223</ele>
        <time>2011-08-30T19:58:41Z</time>
      </trkpt>
      <trkpt lat="59.4578149" lon="17.8059128">
        <ele>32.3416</ele>
        <time>2011-08-30T19:58:47Z</time>
      </trkpt>
      <trkpt lat="59.4579574" lon="17.805978">
        <ele>33.3029</ele>
        <time>2011-08-30T19:58:52Z</time>
      </trkpt>
      <trkpt lat="59.4581206" lon="17.8060378">
        <ele>35.2255</ele>
        <time>2011-08-30T19:58:58Z</time>
      </trkpt>
      <trkpt lat="59.4582944" lon="17.8060956">
        <ele>35.2255</ele>
        <time>2011-08-30T19:59:04Z</time>
      </trkpt>
      <trkpt lat="59.4584163" lon="17.8061368">
        <ele>35.2255</ele>
        <time>2011-08-30T19:59:09Z</time>
      </trkpt>
      <trkpt lat="59.4585712" lon="17.8061123">
        <ele>36.1868</ele>
        <time>2011-08-30T19:59:15Z</time>
      </trkpt>
      <trkpt lat="59.458707" lon="17.8061401">
        <ele>38.1094</ele>
        <time>2011-08-30T19:59:20Z</time>
      </trkpt>
      <trkpt lat="59.4588137" lon="17.806181">
        <ele>40.0321</ele>
        <time>2011-08-30T19:59:24Z</time>
      </trkpt>
      <trkpt lat="59.4589935" lon="17.8062355">
        <ele>41.474</ele>
        <time>2011-08-30T19:59:30Z</time>
      </trkpt>
      <trkpt lat="59.459146" lon="17.8062385">
        <ele>41.9547</ele>
        <time>2011-08-30T19:59:35Z</time>
      </trkpt>
      <trkpt lat="59.4593233" lon="17.8062682">
        <ele>44.358</ele>
        <time>2011-08-30T19:59:42Z</time>
      </trkpt>
      <trkpt lat="59.4594713" lon="17.806277">
        <ele>45.3192</ele>
        <time>2011-08-30T19:59:47Z</time>
      </trkpt>
      <trkpt lat="59.4595873" lon="17.8062821">
        <ele>48.684</ele>
        <time>2011-08-30T19:59:52Z</time>
      </trkpt>
      <trkpt lat="59.4597186" lon="17.8063019">
        <ele>50.6066</ele>
        <time>2011-08-30T19:59:58Z</time>
      </trkpt>
      <trkpt lat="59.4598248" lon="17.8063237">
        <ele>53.4905</ele>
        <time>2011-08-30T20:00:02Z</time>
      </trkpt>
      <trkpt lat="59.4599718" lon="17.8063527">
        <ele>53.9712</ele>
        <time>2011-08-30T20:00:07Z</time>
      </trkpt>
      <trkpt lat="59.4601206" lon="17.8063976">
        <ele>50.6066</ele>
        <time>2011-08-30T20:00:12Z</time>
      </trkpt>
      <trkpt lat="59.4602635" lon="17.8064261">
        <ele>48.684</ele>
        <time>2011-08-30T20:00:17Z</time>
      </trkpt>
      <trkpt lat="59.4603806" lon="17.8064475">
        <ele>48.684</ele>
        <time>2011-08-30T20:00:21Z</time>
      </trkpt>
      <trkpt lat="59.4605283" lon="17.8064552">
        <ele>47.7225</ele>
        <time>2011-08-30T20:00:26Z</time>
      </trkpt>
      <trkpt lat="59.4606469" lon="17.806455">
        <ele>46.2806</ele>
        <time>2011-08-30T20:00:30Z</time>
      </trkpt>
      <trkpt lat="59.4608357" lon="17.8064599">
        <ele>47.2418</ele>
        <time>2011-08-30T20:00:37Z</time>
      </trkpt>
      <trkpt lat="59.4610126" lon="17.8064495">
        <ele>49.1646</ele>
        <time>2011-08-30T20:00:43Z</time>
      </trkpt>
      <trkpt lat="59.4612229" lon="17.8063828">
        <ele>45.3192</ele>
        <time>2011-08-30T20:00:50Z</time>
      </trkpt>
      <trkpt lat="59.4613581" lon="17.8063511">
        <ele>41.9547</ele>
        <time>2011-08-30T20:00:55Z</time>
      </trkpt>
      <trkpt lat="59.4615033" lon="17.8064003">
        <ele>41.474</ele>
        <time>2011-08-30T20:01:00Z</time>
      </trkpt>
      <trkpt lat="59.4615382" lon="17.806491">
        <ele>41.9547</ele>
        <time>2011-08-30T20:01:02Z</time>
      </trkpt>
      <trkpt lat="59.4616067" lon="17.8068055">
        <ele>40.0321</ele>
        <time>2011-08-30T20:01:08Z</time>
      </trkpt>
      <trkpt lat="59.461686" lon="17.8068738">
        <ele>40.0321</ele>
        <time>2011-08-30T20:01:12Z</time>
      </trkpt>
      <trkpt lat="59.4617114" lon="17.8068758">
        <ele>40.0321</ele>
        <time>2011-08-30T20:01:13Z</time>
      </trkpt>
      <trkpt lat="59.4618874" lon="17.8068685">
        <ele>38.1094</ele>
        <time>2011-08-30T20:01:19Z</time>
      </trkpt>
      <trkpt lat="59.4619948" lon="17.8068254">
        <ele>39.5513</ele>
        <time>2011-08-30T20:01:23Z</time>
      </trkpt>
      <trkpt lat="59.4621468" lon="17.8067764">
        <ele>40.5128</ele>
        <time>2011-08-30T20:01:28Z</time>
      </trkpt>
      <trkpt lat="59.4623088" lon="17.8067333">
        <ele>41.474</ele>
        <time>2011-08-30T20:01:34Z</time>
      </trkpt>
      <trkpt lat="59.4624563" lon="17.8066314">
        <ele>43.8773</ele>
        <time>2011-08-30T20:01:40Z</time>
      </trkpt>
      <trkpt lat="59.4625835" lon="17.8065707">
        <ele>46.7612</ele>
        <time>2011-08-30T20:01:45Z</time>
      </trkpt>
      <trkpt lat="59.4626884" lon="17.8065338">
        <ele>48.2034</ele>
        <time>2011-08-30T20:01:49Z</time>
      </trkpt>
      <trkpt lat="59.4628373" lon="17.8065989">
        <ele>47.2418</ele>
        <time>2011-08-30T20:01:54Z</time>
      </trkpt>
      <trkpt lat="59.462936" lon="17.8067596">
        <ele>44.358</ele>
        <time>2011-08-30T20:01:58Z</time>
      </trkpt>
      <trkpt lat="59.4630557" lon="17.8069599">
        <ele>40.9934</ele>
        <time>2011-08-30T20:02:03Z</time>
      </trkpt>
      <trkpt lat="59.4631801" lon="17.8071725">
        <ele>40.5128</ele>
        <time>2011-08-30T20:02:08Z</time>
      </trkpt>
      <trkpt lat="59.4633131" lon="17.8073913">
        <ele>39.0707</ele>
        <time>2011-08-30T20:02:13Z</time>
      </trkpt>
      <trkpt lat="59.4634266" lon="17.8075306">
        <ele>37.6287</ele>
        <time>2011-08-30T20:02:18Z</time>
      </trkpt>
      <trkpt lat="59.4636135" lon="17.8076853">
        <ele>36.6675</ele>
        <time>2011-08-30T20:02:25Z</time>
      </trkpt>
      <trkpt lat="59.4637744" lon="17.8078154">
        <ele>36.6675</ele>
        <time>2011-08-30T20:02:31Z</time>
      </trkpt>
      <trkpt lat="59.4639058" lon="17.8079182">
        <ele>37.6287</ele>
        <time>2011-08-30T20:02:36Z</time>
      </trkpt>
      <trkpt lat="59.4640497" lon="17.8080424">
        <ele>37.6287</ele>
        <time>2011-08-30T20:02:42Z</time>
      </trkpt>
      <trkpt lat="59.4642038" lon="17.8081894">
        <ele>36.1868</ele>
        <time>2011-08-30T20:02:48Z</time>
      </trkpt>
      <trkpt lat="59.4643159" lon="17.8082989">
        <ele>34.7449</ele>
        <time>2011-08-30T20:02:53Z</time>
      </trkpt>
      <trkpt lat="59.464419" lon="17.8083905">
        <ele>32.8223</ele>
        <time>2011-08-30T20:02:57Z</time>
      </trkpt>
      <trkpt lat="59.4645376" lon="17.808425">
        <ele>32.8223</ele>
        <time>2011-08-30T20:03:02Z</time>
      </trkpt>
      <trkpt lat="59.464698" lon="17.8083915">
        <ele>32.3416</ele>
        <time>2011-08-30T20:03:08Z</time>
      </trkpt>
      <trkpt lat="59.4648465" lon="17.8083777">
        <ele>33.7834</ele>
        <time>2011-08-30T20:03:14Z</time>
      </trkpt>
      <trkpt lat="59.4648716" lon="17.8083883">
        <ele>33.7834</ele>
        <time>2011-08-30T20:03:15Z</time>
      </trkpt>
      <trkpt lat="59.4649441" lon="17.8083999">
        <ele>35.2255</ele>
        <time>2011-08-30T20:03:18Z</time>
      </trkpt>
      <trkpt lat="59.4651148" lon="17.8085883">
        <ele>35.7061</ele>
        <time>2011-08-30T20:03:26Z</time>
      </trkpt>
      <trkpt lat="59.4651376" lon="17.8086194">
        <ele>35.7061</ele>
        <time>2011-08-30T20:03:27Z</time>
      </trkpt>
      <trkpt lat="59.4653203" lon="17.8087236">
        <ele>39.5513</ele>
        <time>2011-08-30T20:03:34Z</time>
      </trkpt>
      <trkpt lat="59.4654771" lon="17.8087796">
        <ele>40.9934</ele>
        <time>2011-08-30T20:03:40Z</time>
      </trkpt>
      <trkpt lat="59.465583" lon="17.8087918">
        <ele>42.916</ele>
        <time>2011-08-30T20:03:44Z</time>
      </trkpt>
      <trkpt lat="59.4656906" lon="17.8088255">
        <ele>42.916</ele>
        <time>2011-08-30T20:03:48Z</time>
      </trkpt>
      <trkpt lat="59.4658166" lon="17.8088736">
        <ele>42.4354</ele>
        <time>2011-08-30T20:03:54Z</time>
      </trkpt>
      <trkpt lat="59.4658577" lon="17.8088816">
        <ele>41.474</ele>
        <time>2011-08-30T20:03:56Z</time>
      </trkpt>
      <trkpt lat="59.4660011" lon="17.8089532">
        <ele>38.5901</ele>
        <time>2011-08-30T20:04:02Z</time>
      </trkpt>
      <trkpt lat="59.4661324" lon="17.8089224">
        <ele>34.7449</ele>
        <time>2011-08-30T20:04:07Z</time>
      </trkpt>
      <trkpt lat="59.4662522" lon="17.8089208">
        <ele>31.8607</ele>
        <time>2011-08-30T20:04:11Z</time>
      </trkpt>
      <trkpt lat="59.4662835" lon="17.8089158">
        <ele>31.8607</ele>
        <time>2011-08-30T20:04:12Z</time>
      </trkpt>
      <trkpt lat="59.4664587" lon="17.8089012">
        <ele>31.8607</ele>
        <time>2011-08-30T20:04:18Z</time>
      </trkpt>
      <trkpt lat="59.4665924" lon="17.8087951">
        <ele>29.4575</ele>
        <time>2011-08-30T20:04:24Z</time>
      </trkpt>
      <trkpt lat="59.4666434" lon="17.808732">
        <ele>28.9769</ele>
        <time>2011-08-30T20:04:26Z</time>
      </trkpt>
      <trkpt lat="59.4667562" lon="17.8086774">
        <ele>28.4962</ele>
        <time>2011-08-30T20:04:30Z</time>
      </trkpt>
      <trkpt lat="59.466906" lon="17.8085599">
        <ele>29.9381</ele>
        <time>2011-08-30T20:04:35Z</time>
      </trkpt>
      <trkpt lat="59.4670047" lon="17.8084525">
        <ele>29.9381</ele>
        <time>2011-08-30T20:04:39Z</time>
      </trkpt>
      <trkpt lat="59.4671293" lon="17.8082997">
        <ele>29.4575</ele>
        <time>2011-08-30T20:04:44Z</time>
      </trkpt>
      <trkpt lat="59.4672734" lon="17.8081257">
        <ele>29.4575</ele>
        <time>2011-08-30T20:04:50Z</time>
      </trkpt>
      <trkpt lat="59.4673894" lon="17.8079687">
        <ele>28.9769</ele>
        <time>2011-08-30T20:04:55Z</time>
      </trkpt>
      <trkpt lat="59.4675794" lon="17.8077368">
        <ele>28.0155</ele>
        <time>2011-08-30T20:05:03Z</time>
      </trkpt>
      <trkpt lat="59.4677014" lon="17.8076063">
        <ele>27.5349</ele>
        <time>2011-08-30T20:05:08Z</time>
      </trkpt>
      <trkpt lat="59.4678558" lon="17.8074814">
        <ele>28.0155</ele>
        <time>2011-08-30T20:05:14Z</time>
      </trkpt>
      <trkpt lat="59.467985" lon="17.8074073">
        <ele>28.4962</ele>
        <time>2011-08-30T20:05:19Z</time>
      </trkpt>
      <trkpt lat="59.468132" lon="17.8072963">
        <ele>29.9381</ele>
        <time>2011-08-30T20:05:25Z</time>
      </trkpt>
      <trkpt lat="59.4682559" lon="17.8072431">
        <ele>31.3801</ele>
        <time>2011-08-30T20:05:30Z</time>
      </trkpt>
      <trkpt lat="59.4683881" lon="17.8072385">
        <ele>32.3416</ele>
        <time>2011-08-30T20:05:35Z</time>
      </trkpt>
      <trkpt lat="59.4684337" lon="17.8072364">
        <ele>32.8223</ele>
        <time>2011-08-30T20:05:37Z</time>
      </trkpt>
      <trkpt lat="59.4684605" lon="17.8070945">
        <ele>32.8223</ele>
        <time>2011-08-30T20:05:41Z</time>
      </trkpt>
      <trkpt lat="59.4684559" lon="17.8068283">
        <ele>30.8995</ele>
        <time>2011-08-30T20:05:46Z</time>
      </trkpt>
      <trkpt lat="59.4684896" lon="17.8065769">
        <ele>28.9769</ele>
        <time>2011-08-30T20:05:51Z</time>
      </trkpt>
      <trkpt lat="59.4685507" lon="17.8062572">
        <ele>28.0155</ele>
        <time>2011-08-30T20:05:57Z</time>
      </trkpt>
      <trkpt lat="59.4686126" lon="17.8059258">
        <ele>28.0155</ele>
        <time>2011-08-30T20:06:03Z</time>
      </trkpt>
      <trkpt lat="59.4686812" lon="17.8056637">
        <ele>28.9769</ele>
        <time>2011-08-30T20:06:08Z</time>
      </trkpt>
      <trkpt lat="59.4687277" lon="17.805468">
        <ele>28.9769</ele>
        <time>2011-08-30T20:06:12Z</time>
      </trkpt>
      <trkpt lat="59.4687667" lon="17.805194">
        <ele>29.4575</ele>
        <time>2011-08-30T20:06:17Z</time>
      </trkpt>
      <trkpt lat="59.4688221" lon="17.8048437">
        <ele>27.0543</ele>
        <time>2011-08-30T20:06:24Z</time>
      </trkpt>
      <trkpt lat="59.4688665" lon="17.8046633">
        <ele>26.5736</ele>
        <time>2011-08-30T20:06:28Z</time>
      </trkpt>
      <trkpt lat="59.4689097" lon="17.8044735">
        <ele>26.0929</ele>
        <time>2011-08-30T20:06:32Z</time>
      </trkpt>
      <trkpt lat="59.4690123" lon="17.8042361">
        <ele>26.5736</ele>
        <time>2011-08-30T20:06:38Z</time>
      </trkpt>
      <trkpt lat="59.4691189" lon="17.8040698">
        <ele>25.6123</ele>
        <time>2011-08-30T20:06:43Z</time>
      </trkpt>
      <trkpt lat="59.4692348" lon="17.8039102">
        <ele>26.0929</ele>
        <time>2011-08-30T20:06:48Z</time>
      </trkpt>
      <trkpt lat="59.4693418" lon="17.8037756">
        <ele>25.6123</ele>
        <time>2011-08-30T20:06:53Z</time>
      </trkpt>
      <trkpt lat="59.4694057" lon="17.8037182">
        <ele>25.1317</ele>
        <time>2011-08-30T20:06:56Z</time>
      </trkpt>
      <trkpt lat="59.4694899" lon="17.8038511">
        <ele>24.1703</ele>
        <time>2011-08-30T20:07:00Z</time>
      </trkpt>
      <trkpt lat="59.4696083" lon="17.8040774">
        <ele>23.209</ele>
        <time>2011-08-30T20:07:06Z</time>
      </trkpt>
      <trkpt lat="59.469714" lon="17.8040377">
        <ele>23.209</ele>
        <time>2011-08-30T20:07:10Z</time>
      </trkpt>
      <trkpt lat="59.4698794" lon="17.8039906">
        <ele>22.2476</ele>
        <time>2011-08-30T20:07:16Z</time>
      </trkpt>
      <trkpt lat="59.4699193" lon="17.8039999">
        <ele>22.2476</ele>
        <time>2011-08-30T20:07:17Z</time>
      </trkpt>
      <trkpt lat="59.47006" lon="17.8038754">
        <ele>22.7283</ele>
        <time>2011-08-30T20:07:22Z</time>
      </trkpt>
      <trkpt lat="59.4701784" lon="17.803755">
        <ele>22.7283</ele>
        <time>2011-08-30T20:07:27Z</time>
      </trkpt>
      <trkpt lat="59.4702807" lon="17.8036878">
        <ele>22.2476</ele>
        <time>2011-08-30T20:07:31Z</time>
      </trkpt>
      <trkpt lat="59.4703901" lon="17.803454">
        <ele>19.3638</ele>
        <time>2011-08-30T20:07:37Z</time>
      </trkpt>
      <trkpt lat="59.4704746" lon="17.8032154">
        <ele>18.4023</ele>
        <time>2011-08-30T20:07:42Z</time>
      </trkpt>
      <trkpt lat="59.4705568" lon="17.8029238">
        <ele>16.4797</ele>
        <time>2011-08-30T20:07:48Z</time>
      </trkpt>
      <trkpt lat="59.4706517" lon="17.8026437">
        <ele>14.557</ele>
        <time>2011-08-30T20:07:54Z</time>
      </trkpt>
      <trkpt lat="59.4706936" lon="17.8025881">
        <ele>14.0764</ele>
        <time>2011-08-30T20:07:56Z</time>
      </trkpt>
      <trkpt lat="59.4708418" lon="17.8027371">
        <ele>12.6344</ele>
        <time>2011-08-30T20:08:02Z</time>
      </trkpt>
      <trkpt lat="59.4710046" lon="17.8029437">
        <ele>12.1538</ele>
        <time>2011-08-30T20:08:09Z</time>
      </trkpt>
      <trkpt lat="59.4711576" lon="17.803145">
        <ele>12.6344</ele>
        <time>2011-08-30T20:08:16Z</time>
      </trkpt>
      <trkpt lat="59.4713225" lon="17.8033203">
        <ele>13.5958</ele>
        <time>2011-08-30T20:08:23Z</time>
      </trkpt>
      <trkpt lat="59.4714935" lon="17.803469">
        <ele>15.0377</ele>
        <time>2011-08-30T20:08:30Z</time>
      </trkpt>
      <trkpt lat="59.4716313" lon="17.8035975">
        <ele>15.5184</ele>
        <time>2011-08-30T20:08:36Z</time>
      </trkpt>
      <trkpt lat="59.4717777" lon="17.8037149">
        <ele>16.4797</ele>
        <time>2011-08-30T20:08:42Z</time>
      </trkpt>
      <trkpt lat="59.4718259" lon="17.8037533">
        <ele>16.4797</ele>
        <time>2011-08-30T20:08:44Z</time>
      </trkpt>
      <trkpt lat="59.4719429" lon="17.8038719">
        <ele>16.4797</ele>
        <time>2011-08-30T20:08:49Z</time>
      </trkpt>
      <trkpt lat="59.4720939" lon="17.8040018">
        <ele>17.4412</ele>
        <time>2011-08-30T20:08:55Z</time>
      </trkpt>
      <trkpt lat="59.4722394" lon="17.8041324">
        <ele>17.4412</ele>
        <time>2011-08-30T20:09:01Z</time>
      </trkpt>
      <trkpt lat="59.4723744" lon="17.8042667">
        <ele>18.4023</ele>
        <time>2011-08-30T20:09:07Z</time>
      </trkpt>
      <trkpt lat="59.4724895" lon="17.8043501">
        <ele>19.8444</ele>
        <time>2011-08-30T20:09:12Z</time>
      </trkpt>
      <trkpt lat="59.4726039" lon="17.8044354">
        <ele>19.8444</ele>
        <time>2011-08-30T20:09:17Z</time>
      </trkpt>
      <trkpt lat="59.4727759" lon="17.8045902">
        <ele>21.767</ele>
        <time>2011-08-30T20:09:24Z</time>
      </trkpt>
      <trkpt lat="59.4729147" lon="17.8047728">
        <ele>22.2476</ele>
        <time>2011-08-30T20:09:30Z</time>
      </trkpt>
      <trkpt lat="59.4729471" lon="17.8049264">
        <ele>23.209</ele>
        <time>2011-08-30T20:09:33Z</time>
      </trkpt>
      <trkpt lat="59.4730408" lon="17.8050994">
        <ele>24.1703</ele>
        <time>2011-08-30T20:09:38Z</time>
      </trkpt>
      <trkpt lat="59.4731626" lon="17.8050773">
        <ele>24.651</ele>
        <time>2011-08-30T20:09:43Z</time>
      </trkpt>
      <trkpt lat="59.4733455" lon="17.8049443">
        <ele>24.1703</ele>
        <time>2011-08-30T20:09:51Z</time>
      </trkpt>
      <trkpt lat="59.4734696" lon="17.8048982">
        <ele>23.209</ele>
        <time>2011-08-30T20:09:56Z</time>
      </trkpt>
      <trkpt lat="59.47357" lon="17.8049093">
        <ele>23.209</ele>
        <time>2011-08-30T20:10:00Z</time>
      </trkpt>
      <trkpt lat="59.4737152" lon="17.8048597">
        <ele>22.7283</ele>
        <time>2011-08-30T20:10:06Z</time>
      </trkpt>
      <trkpt lat="59.4738416" lon="17.8048644">
        <ele>22.7283</ele>
        <time>2011-08-30T20:10:11Z</time>
      </trkpt>
      <trkpt lat="59.4740005" lon="17.8048836">
        <ele>22.7283</ele>
        <time>2011-08-30T20:10:17Z</time>
      </trkpt>
      <trkpt lat="59.4741072" lon="17.8049048">
        <ele>21.767</ele>
        <time>2011-08-30T20:10:22Z</time>
      </trkpt>
      <trkpt lat="59.4742605" lon="17.8050233">
        <ele>21.2864</ele>
        <time>2011-08-30T20:10:28Z</time>
      </trkpt>
      <trkpt lat="59.4744012" lon="17.8049769">
        <ele>20.325</ele>
        <time>2011-08-30T20:10:33Z</time>
      </trkpt>
      <trkpt lat="59.4745395" lon="17.8048758">
        <ele>20.8057</ele>
        <time>2011-08-30T20:10:38Z</time>
      </trkpt>
      <trkpt lat="59.4746573" lon="17.8047119">
        <ele>21.767</ele>
        <time>2011-08-30T20:10:44Z</time>
      </trkpt>
      <trkpt lat="59.4747729" lon="17.8046158">
        <ele>23.209</ele>
        <time>2011-08-30T20:10:49Z</time>
      </trkpt>
      <trkpt lat="59.4748878" lon="17.8045413">
        <ele>24.1703</ele>
        <time>2011-08-30T20:10:54Z</time>
      </trkpt>
      <trkpt lat="59.4750243" lon="17.8044084">
        <ele>25.6123</ele>
        <time>2011-08-30T20:11:00Z</time>
      </trkpt>
      <trkpt lat="59.4751246" lon="17.8043305">
        <ele>24.651</ele>
        <time>2011-08-30T20:11:04Z</time>
      </trkpt>
      <trkpt lat="59.4752771" lon="17.8042616">
        <ele>24.1703</ele>
        <time>2011-08-30T20:11:10Z</time>
      </trkpt>
      <trkpt lat="59.4754379" lon="17.8042206">
        <ele>23.6896</ele>
        <time>2011-08-30T20:11:16Z</time>
      </trkpt>
      <trkpt lat="59.4755898" lon="17.8042155">
        <ele>23.6896</ele>
        <time>2011-08-30T20:11:21Z</time>
      </trkpt>
      <trkpt lat="59.4757565" lon="17.8041979">
        <ele>23.209</ele>
        <time>2011-08-30T20:11:27Z</time>
      </trkpt>
      <trkpt lat="59.4759288" lon="17.8041765">
        <ele>23.209</ele>
        <time>2011-08-30T20:11:34Z</time>
      </trkpt>
      <trkpt lat="59.4760417" lon="17.8041935">
        <ele>22.2476</ele>
        <time>2011-08-30T20:11:39Z</time>
      </trkpt>
      <trkpt lat="59.4761753" lon="17.8041987">
        <ele>22.7283</ele>
        <time>2011-08-30T20:11:44Z</time>
      </trkpt>
      <trkpt lat="59.4763116" lon="17.8042107">
        <ele>22.7283</ele>
        <time>2011-08-30T20:11:50Z</time>
      </trkpt>
      <trkpt lat="59.4764447" lon="17.8042081">
        <ele>21.2864</ele>
        <time>2011-08-30T20:11:55Z</time>
      </trkpt>
      <trkpt lat="59.476639" lon="17.8042283">
        <ele>22.2476</ele>
        <time>2011-08-30T20:12:03Z</time>
      </trkpt>
      <trkpt lat="59.4767658" lon="17.8042546">
        <ele>23.209</ele>
        <time>2011-08-30T20:12:08Z</time>
      </trkpt>
      <trkpt lat="59.476915" lon="17.8042556">
        <ele>23.209</ele>
        <time>2011-08-30T20:12:14Z</time>
      </trkpt>
      <trkpt lat="59.4770524" lon="17.8042437">
        <ele>22.2476</ele>
        <time>2011-08-30T20:12:19Z</time>
      </trkpt>
      <trkpt lat="59.4772302" lon="17.8042662">
        <ele>23.6896</ele>
        <time>2011-08-30T20:12:26Z</time>
      </trkpt>
      <trkpt lat="59.4773796" lon="17.8042791">
        <ele>24.651</ele>
        <time>2011-08-30T20:12:32Z</time>
      </trkpt>
      <trkpt lat="59.4774853" lon="17.8041718">
        <ele>24.1703</ele>
        <time>2011-08-30T20:12:37Z</time>
      </trkpt>
      <trkpt lat="59.4775175" lon="17.8040417">
        <ele>24.651</ele>
        <time>2011-08-30T20:12:40Z</time>
      </trkpt>
      <trkpt lat="59.4775408" lon="17.8038063">
        <ele>24.651</ele>
        <time>2011-08-30T20:12:45Z</time>
      </trkpt>
      <trkpt lat="59.4775571" lon="17.8037175">
        <ele>25.1317</ele>
        <time>2011-08-30T20:12:47Z</time>
      </trkpt>
      <trkpt lat="59.4775784" lon="17.8034617">
        <ele>26.5736</ele>
        <time>2011-08-30T20:12:53Z</time>
      </trkpt>
      <trkpt lat="59.477587" lon="17.8034218">
        <ele>27.0543</ele>
        <time>2011-08-30T20:12:54Z</time>
      </trkpt>
      <trkpt lat="59.4776376" lon="17.8030774">
        <ele>29.4575</ele>
        <time>2011-08-30T20:13:02Z</time>
      </trkpt>
      <trkpt lat="59.4776695" lon="17.8028592">
        <ele>30.8995</ele>
        <time>2011-08-30T20:13:07Z</time>
      </trkpt>
      <trkpt lat="59.4776894" lon="17.8027256">
        <ele>30.8995</ele>
        <time>2011-08-30T20:13:10Z</time>
      </trkpt>
      <trkpt lat="59.4777298" lon="17.8025019">
        <ele>32.3416</ele>
        <time>2011-08-30T20:13:15Z</time>
      </trkpt>
      <trkpt lat="59.4777553" lon="17.8022049">
        <ele>32.3416</ele>
        <time>2011-08-30T20:13:21Z</time>
      </trkpt>
      <trkpt lat="59.4777936" lon="17.8019552">
        <ele>32.8223</ele>
        <time>2011-08-30T20:13:26Z</time>
      </trkpt>
      <trkpt lat="59.4778303" lon="17.801732">
        <ele>33.3029</ele>
        <time>2011-08-30T20:13:31Z</time>
      </trkpt>
      <trkpt lat="59.4778789" lon="17.8014737">
        <ele>33.3029</ele>
        <time>2011-08-30T20:13:37Z</time>
      </trkpt>
      <trkpt lat="59.4779116" lon="17.8012361">
        <ele>33.7834</ele>
        <time>2011-08-30T20:13:42Z</time>
      </trkpt>
      <trkpt lat="59.4779763" lon="17.8009498">
        <ele>34.2642</ele>
        <time>2011-08-30T20:13:48Z</time>
      </trkpt>
      <trkpt lat="59.4780593" lon="17.800743">
        <ele>33.7834</ele>
        <time>2011-08-30T20:13:53Z</time>
      </trkpt>
      <trkpt lat="59.478124" lon="17.8005799">
        <ele>33.3029</ele>
        <time>2011-08-30T20:13:57Z</time>
      </trkpt>
      <trkpt lat="59.4782049" lon="17.8002923">
        <ele>32.3416</ele>
        <time>2011-08-30T20:14:03Z</time>
      </trkpt>
      <trkpt lat="59.4782648" lon="17.8000646">
        <ele>32.3416</ele>
        <time>2011-08-30T20:14:08Z</time>
      </trkpt>
      <trkpt lat="59.4783271" lon="17.7998224">
        <ele>31.8607</ele>
        <time>2011-08-30T20:14:13Z</time>
      </trkpt>
      <trkpt lat="59.4783514" lon="17.7996639">
        <ele>31.8607</ele>
        <time>2011-08-30T20:14:16Z</time>
      </trkpt>
      <trkpt lat="59.4784399" lon="17.7994409">
        <ele>32.8223</ele>
        <time>2011-08-30T20:14:21Z</time>
      </trkpt>
      <trkpt lat="59.4785633" lon="17.7994941">
        <ele>32.3416</ele>
        <time>2011-08-30T20:14:26Z</time>
      </trkpt>
      <trkpt lat="59.4786043" lon="17.7995388">
        <ele>31.8607</ele>
        <time>2011-08-30T20:14:28Z</time>
      </trkpt>
      <trkpt lat="59.4787646" lon="17.799663">
        <ele>30.8995</ele>
        <time>2011-08-30T20:14:34Z</time>
      </trkpt>
      <trkpt lat="59.4787933" lon="17.7996774">
        <ele>30.8995</ele>
        <time>2011-08-30T20:14:35Z</time>
      </trkpt>
      <trkpt lat="59.4789969" lon="17.7997631">
        <ele>31.3801</ele>
        <time>2011-08-30T20:14:42Z</time>
      </trkpt>
      <trkpt lat="59.4791184" lon="17.7998316">
        <ele>32.3416</ele>
        <time>2011-08-30T20:14:47Z</time>
      </trkpt>
      <trkpt lat="59.4792319" lon="17.7999066">
        <ele>33.3029</ele>
        <time>2011-08-30T20:14:53Z</time>
      </trkpt>
      <trkpt lat="59.4792988" lon="17.7999742">
        <ele>32.8223</ele>
        <time>2011-08-30T20:14:57Z</time>
      </trkpt>
      <trkpt lat="59.4795005" lon="17.8001188">
        <ele>33.7834</ele>
        <time>2011-08-30T20:15:05Z</time>
      </trkpt>
      <trkpt lat="59.4796592" lon="17.8002556">
        <ele>33.3029</ele>
        <time>2011-08-30T20:15:11Z</time>
      </trkpt>
      <trkpt lat="59.4798121" lon="17.8003491">
        <ele>33.7834</ele>
        <time>2011-08-30T20:15:17Z</time>
      </trkpt>
      <trkpt lat="59.4799795" lon="17.800407">
        <ele>32.3416</ele>
        <time>2011-08-30T20:15:23Z</time>
      </trkpt>
      <trkpt lat="59.4801104" lon="17.8004399">
        <ele>30.8995</ele>
        <time>2011-08-30T20:15:28Z</time>
      </trkpt>
      <trkpt lat="59.4802774" lon="17.8004344">
        <ele>28.4962</ele>
        <time>2011-08-30T20:15:34Z</time>
      </trkpt>
      <trkpt lat="59.4804503" lon="17.8004427">
        <ele>27.5349</ele>
        <time>2011-08-30T20:15:40Z</time>
      </trkpt>
      <trkpt lat="59.4806286" lon="17.8004184">
        <ele>27.0543</ele>
        <time>2011-08-30T20:15:46Z</time>
      </trkpt>
      <trkpt lat="59.4807797" lon="17.8003959">
        <ele>27.0543</ele>
        <time>2011-08-30T20:15:51Z</time>
      </trkpt>
      <trkpt lat="59.480906" lon="17.800367">
        <ele>26.0929</ele>
        <time>2011-08-30T20:15:55Z</time>
      </trkpt>
      <trkpt lat="59.4811037" lon="17.8002878">
        <ele>24.651</ele>
        <time>2011-08-30T20:16:01Z</time>
      </trkpt>
      <trkpt lat="59.4812761" lon="17.8001162">
        <ele>22.2476</ele>
        <time>2011-08-30T20:16:07Z</time>
      </trkpt>
      <trkpt lat="59.4814262" lon="17.7999625">
        <ele>21.2864</ele>
        <time>2011-08-30T20:16:12Z</time>
      </trkpt>
      <trkpt lat="59.4815707" lon="17.7998438">
        <ele>21.767</ele>
        <time>2011-08-30T20:16:17Z</time>
      </trkpt>
      <trkpt lat="59.4817324" lon="17.7997444">
        <ele>21.2864</ele>
        <time>2011-08-30T20:16:23Z</time>
      </trkpt>
      <trkpt lat="59.4818883" lon="17.799762">
        <ele>20.8057</ele>
        <time>2011-08-30T20:16:28Z</time>
      </trkpt>
      <trkpt lat="59.4820033" lon="17.7997936">
        <ele>19.3638</ele>
        <time>2011-08-30T20:16:33Z</time>
      </trkpt>
      <trkpt lat="59.4821314" lon="17.7998574">
        <ele>19.3638</ele>
        <time>2011-08-30T20:16:38Z</time>
      </trkpt>
      <trkpt lat="59.4822376" lon="17.7999093">
        <ele>19.8444</ele>
        <time>2011-08-30T20:16:42Z</time>
      </trkpt>
      <trkpt lat="59.4823748" lon="17.7999973">
        <ele>21.2864</ele>
        <time>2011-08-30T20:16:47Z</time>
      </trkpt>
      <trkpt lat="59.4824991" lon="17.8000507">
        <ele>20.325</ele>
        <time>2011-08-30T20:16:52Z</time>
      </trkpt>
      <trkpt lat="59.4826358" lon="17.8001614">
        <ele>18.8831</ele>
        <time>2011-08-30T20:16:58Z</time>
      </trkpt>
      <trkpt lat="59.4827654" lon="17.8002824">
        <ele>18.4023</ele>
        <time>2011-08-30T20:17:03Z</time>
      </trkpt>
      <trkpt lat="59.4829043" lon="17.8004272">
        <ele>17.4412</ele>
        <time>2011-08-30T20:17:08Z</time>
      </trkpt>
      <trkpt lat="59.4830377" lon="17.8006001">
        <ele>15.5184</ele>
        <time>2011-08-30T20:17:13Z</time>
      </trkpt>
      <trkpt lat="59.4831411" lon="17.8007305">
        <ele>15.0377</ele>
        <time>2011-08-30T20:17:17Z</time>
      </trkpt>
      <trkpt lat="59.4832309" lon="17.8008405">
        <ele>14.557</ele>
        <time>2011-08-30T20:17:21Z</time>
      </trkpt>
      <trkpt lat="59.4834078" lon="17.8009907">
        <ele>13.5958</ele>
        <time>2011-08-30T20:17:27Z</time>
      </trkpt>
      <trkpt lat="59.483585" lon="17.8011307">
        <ele>13.1151</ele>
        <time>2011-08-30T20:17:33Z</time>
      </trkpt>
      <trkpt lat="59.4837216" lon="17.8012456">
        <ele>13.1151</ele>
        <time>2011-08-30T20:17:38Z</time>
      </trkpt>
      <trkpt lat="59.4838935" lon="17.80137">
        <ele>12.6344</ele>
        <time>2011-08-30T20:17:45Z</time>
      </trkpt>
      <trkpt lat="59.4840577" lon="17.8014041">
        <ele>13.5958</ele>
        <time>2011-08-30T20:17:51Z</time>
      </trkpt>
      <trkpt lat="59.484251" lon="17.8014288">
        <ele>15.0377</ele>
        <time>2011-08-30T20:17:58Z</time>
      </trkpt>
      <trkpt lat="59.484384" lon="17.8015163">
        <ele>14.0764</ele>
        <time>2011-08-30T20:18:04Z</time>
      </trkpt>
      <trkpt lat="59.4844798" lon="17.8015787">
        <ele>14.0764</ele>
        <time>2011-08-30T20:18:08Z</time>
      </trkpt>
      <trkpt lat="59.4845734" lon="17.8017393">
        <ele>13.1151</ele>
        <time>2011-08-30T20:18:12Z</time>
      </trkpt>
      <trkpt lat="59.4846519" lon="17.8019874">
        <ele>14.557</ele>
        <time>2011-08-30T20:18:17Z</time>
      </trkpt>
      <trkpt lat="59.4847288" lon="17.8022861">
        <ele>15.0377</ele>
        <time>2011-08-30T20:18:23Z</time>
      </trkpt>
      <trkpt lat="59.4847389" lon="17.8023417">
        <ele>15.5184</ele>
        <time>2011-08-30T20:18:24Z</time>
      </trkpt>
      <trkpt lat="59.4848716" lon="17.8026873">
        <ele>14.0764</ele>
        <time>2011-08-30T20:18:32Z</time>
      </trkpt>
      <trkpt lat="59.4850051" lon="17.8029633">
        <ele>13.1151</ele>
        <time>2011-08-30T20:18:39Z</time>
      </trkpt>
      <trkpt lat="59.4851297" lon="17.8031654">
        <ele>12.1538</ele>
        <time>2011-08-30T20:18:45Z</time>
      </trkpt>
      <trkpt lat="59.4852066" lon="17.8032449">
        <ele>12.1538</ele>
        <time>2011-08-30T20:18:49Z</time>
      </trkpt>
      <trkpt lat="59.4853441" lon="17.8033626">
        <ele>12.1538</ele>
        <time>2011-08-30T20:18:55Z</time>
      </trkpt>
      <trkpt lat="59.4854787" lon="17.8034347">
        <ele>14.0764</ele>
        <time>2011-08-30T20:19:00Z</time>
      </trkpt>
      <trkpt lat="59.4856186" lon="17.8034969">
        <ele>14.557</ele>
        <time>2011-08-30T20:19:06Z</time>
      </trkpt>
      <trkpt lat="59.4857666" lon="17.8035299">
        <ele>15.0377</ele>
        <time>2011-08-30T20:19:12Z</time>
      </trkpt>
      <trkpt lat="59.485919" lon="17.8035529">
        <ele>15.5184</ele>
        <time>2011-08-30T20:19:18Z</time>
      </trkpt>
      <trkpt lat="59.4860455" lon="17.8035987">
        <ele>15.999</ele>
        <time>2011-08-30T20:19:23Z</time>
      </trkpt>
      <trkpt lat="59.4861753" lon="17.8036404">
        <ele>15.5184</ele>
        <time>2011-08-30T20:19:28Z</time>
      </trkpt>
      <trkpt lat="59.4863283" lon="17.8036808">
        <ele>15.0377</ele>
        <time>2011-08-30T20:19:34Z</time>
      </trkpt>
      <trkpt lat="59.4864677" lon="17.8037707">
        <ele>13.5958</ele>
        <time>2011-08-30T20:19:39Z</time>
      </trkpt>
      <trkpt lat="59.4865904" lon="17.8038346">
        <ele>13.5958</ele>
        <time>2011-08-30T20:19:44Z</time>
      </trkpt>
      <trkpt lat="59.4867442" lon="17.8038792">
        <ele>15.0377</ele>
        <time>2011-08-30T20:19:50Z</time>
      </trkpt>
      <trkpt lat="59.4868829" lon="17.8039086">
        <ele>15.999</ele>
        <time>2011-08-30T20:19:55Z</time>
      </trkpt>
      <trkpt lat="59.4869689" lon="17.8039175">
        <ele>16.9604</ele>
        <time>2011-08-30T20:19:58Z</time>
      </trkpt>
      <trkpt lat="59.4870436" lon="17.8039207">
        <ele>16.4797</ele>
        <time>2011-08-30T20:20:01Z</time>
      </trkpt>
      <trkpt lat="59.487213" lon="17.8039593">
        <ele>16.9604</ele>
        <time>2011-08-30T20:20:07Z</time>
      </trkpt>
      <trkpt lat="59.4873499" lon="17.8039911">
        <ele>17.4412</ele>
        <time>2011-08-30T20:20:12Z</time>
      </trkpt>
      <trkpt lat="59.4874618" lon="17.8039916">
        <ele>17.9218</ele>
        <time>2011-08-30T20:20:17Z</time>
      </trkpt>
      <trkpt lat="59.4875889" lon="17.804002">
        <ele>16.4797</ele>
        <time>2011-08-30T20:20:22Z</time>
      </trkpt>
      <trkpt lat="59.4877247" lon="17.8040102">
        <ele>15.999</ele>
        <time>2011-08-30T20:20:27Z</time>
      </trkpt>
      <trkpt lat="59.4878256" lon="17.803992">
        <ele>15.999</ele>
        <time>2011-08-30T20:20:31Z</time>
      </trkpt>
      <trkpt lat="59.4879694" lon="17.8039796">
        <ele>16.4797</ele>
        <time>2011-08-30T20:20:37Z</time>
      </trkpt>
      <trkpt lat="59.4881077" lon="17.8039601">
        <ele>17.9218</ele>
        <time>2011-08-30T20:20:43Z</time>
      </trkpt>
      <trkpt lat="59.488209" lon="17.8039486">
        <ele>18.4023</ele>
        <time>2011-08-30T20:20:47Z</time>
      </trkpt>
      <trkpt lat="59.4883334" lon="17.803929">
        <ele>18.8831</ele>
        <time>2011-08-30T20:20:52Z</time>
      </trkpt>
      <trkpt lat="59.488464" lon="17.8039336">
        <ele>19.3638</ele>
        <time>2011-08-30T20:20:57Z</time>
      </trkpt>
      <trkpt lat="59.488647" lon="17.8039828">
        <ele>19.3638</ele>
        <time>2011-08-30T20:21:04Z</time>
      </trkpt>
      <trkpt lat="59.4887458" lon="17.8040231">
        <ele>18.8831</ele>
        <time>2011-08-30T20:21:08Z</time>
      </trkpt>
      <trkpt lat="59.4888666" lon="17.8040901">
        <ele>19.3638</ele>
        <time>2011-08-30T20:21:13Z</time>
      </trkpt>
      <trkpt lat="59.4890528" lon="17.80416">
        <ele>18.8831</ele>
        <time>2011-08-30T20:21:20Z</time>
      </trkpt>
      <trkpt lat="59.4891932" lon="17.8042246">
        <ele>18.8831</ele>
        <time>2011-08-30T20:21:26Z</time>
      </trkpt>
      <trkpt lat="59.4893172" lon="17.8042557">
        <ele>18.8831</ele>
        <time>2011-08-30T20:21:31Z</time>
      </trkpt>
      <trkpt lat="59.4894389" lon="17.8042889">
        <ele>18.8831</ele>
        <time>2011-08-30T20:21:36Z</time>
      </trkpt>
      <trkpt lat="59.4895672" lon="17.8043209">
        <ele>18.8831</ele>
        <time>2011-08-30T20:21:41Z</time>
      </trkpt>
      <trkpt lat="59.4896757" lon="17.8043195">
        <ele>18.8831</ele>
        <time>2011-08-30T20:21:45Z</time>
      </trkpt>
      <trkpt lat="59.4898503" lon="17.804339">
        <ele>16.9604</ele>
        <time>2011-08-30T20:21:51Z</time>
      </trkpt>
      <trkpt lat="59.49005" lon="17.8043248">
        <ele>16.4797</ele>
        <time>2011-08-30T20:21:58Z</time>
      </trkpt>
      <trkpt lat="59.4901847" lon="17.8043133">
        <ele>15.0377</ele>
        <time>2011-08-30T20:22:03Z</time>
      </trkpt>
      <trkpt lat="59.4903211" lon="17.8043108">
        <ele>14.557</ele>
        <time>2011-08-30T20:22:08Z</time>
      </trkpt>
      <trkpt lat="59.4904584" lon="17.8042755">
        <ele>15.0377</ele>
        <time>2011-08-30T20:22:13Z</time>
      </trkpt>
      <trkpt lat="59.4905946" lon="17.8042506">
        <ele>15.5184</ele>
        <time>2011-08-30T20:22:18Z</time>
      </trkpt>
      <trkpt lat="59.4907478" lon="17.8042465">
        <ele>15.5184</ele>
        <time>2011-08-30T20:22:24Z</time>
      </trkpt>
      <trkpt lat="59.4908908" lon="17.8042131">
        <ele>16.9604</ele>
        <time>2011-08-30T20:22:30Z</time>
      </trkpt>
      <trkpt lat="59.4910499" lon="17.8042085">
        <ele>17.9218</ele>
        <time>2011-08-30T20:22:36Z</time>
      </trkpt>
      <trkpt lat="59.4911882" lon="17.8042072">
        <ele>19.3638</ele>
        <time>2011-08-30T20:22:42Z</time>
      </trkpt>
      <trkpt lat="59.4913264" lon="17.804177">
        <ele>20.8057</ele>
        <time>2011-08-30T20:22:48Z</time>
      </trkpt>
      <trkpt lat="59.4914258" lon="17.8041694">
        <ele>21.2864</ele>
        <time>2011-08-30T20:22:53Z</time>
      </trkpt>
      <trkpt lat="59.49161" lon="17.8041924">
        <ele>17.9218</ele>
        <time>2011-08-30T20:23:00Z</time>
      </trkpt>
      <trkpt lat="59.4917341" lon="17.8042303">
        <ele>15.999</ele>
        <time>2011-08-30T20:23:05Z</time>
      </trkpt>
      <trkpt lat="59.4918697" lon="17.8043024">
        <ele>14.557</ele>
        <time>2011-08-30T20:23:10Z</time>
      </trkpt>
      <trkpt lat="59.4919811" lon="17.8043853">
        <ele>12.6344</ele>
        <time>2011-08-30T20:23:14Z</time>
      </trkpt>
      <trkpt lat="59.4921052" lon="17.8044847">
        <ele>6.38586</ele>
        <time>2011-08-30T20:23:21Z</time>
      </trkpt>
      <trkpt lat="59.4921873" lon="17.8045643">
        <ele>0.618042</ele>
        <time>2011-08-30T20:23:26Z</time>
      </trkpt>
      <trkpt lat="59.4923398" lon="17.8046505">
        <ele>0.137451</ele>
        <time>2011-08-30T20:23:32Z</time>
      </trkpt>
      <trkpt lat="59.4924763" lon="17.8047354">
        <ele>1.09863</ele>
        <time>2011-08-30T20:23:37Z</time>
      </trkpt>
      <trkpt lat="59.4926483" lon="17.8048453">
        <ele>0.618042</ele>
        <time>2011-08-30T20:23:43Z</time>
      </trkpt>
      <trkpt lat="59.4928309" lon="17.804941">
        <ele>1.09863</ele>
        <time>2011-08-30T20:23:50Z</time>
      </trkpt>
      <trkpt lat="59.4929601" lon="17.8050031">
        <ele>1.57935</ele>
        <time>2011-08-30T20:23:55Z</time>
      </trkpt>
      <trkpt lat="59.4931314" lon="17.805068">
        <ele>2.54065</ele>
        <time>2011-08-30T20:24:01Z</time>
      </trkpt>
      <trkpt lat="59.4933053" lon="17.805132">
        <ele>3.98267</ele>
        <time>2011-08-30T20:24:07Z</time>
      </trkpt>
      <trkpt lat="59.4934602" lon="17.8052296">
        <ele>3.50195</ele>
        <time>2011-08-30T20:24:13Z</time>
      </trkpt>
      <trkpt lat="59.4935918" lon="17.8052869">
        <ele>3.50195</ele>
        <time>2011-08-30T20:24:18Z</time>
      </trkpt>
      <trkpt lat="59.4937318" lon="17.8053513">
        <ele>3.50195</ele>
        <time>2011-08-30T20:24:23Z</time>
      </trkpt>
      <trkpt lat="59.4939088" lon="17.8054612">
        <ele>4.46326</ele>
        <time>2011-08-30T20:24:30Z</time>
      </trkpt>
      <trkpt lat="59.4940428" lon="17.8055493">
        <ele>4.94385</ele>
        <time>2011-08-30T20:24:35Z</time>
      </trkpt>
      <trkpt lat="59.4942086" lon="17.8056616">
        <ele>6.38586</ele>
        <time>2011-08-30T20:24:41Z</time>
      </trkpt>
      <trkpt lat="59.4943522" lon="17.8057264">
        <ele>5.90527</ele>
        <time>2011-08-30T20:24:46Z</time>
      </trkpt>
      <trkpt lat="59.494486" lon="17.8058281">
        <ele>6.38586</ele>
        <time>2011-08-30T20:24:51Z</time>
      </trkpt>
      <trkpt lat="59.4945913" lon="17.805922">
        <ele>6.86646</ele>
        <time>2011-08-30T20:24:55Z</time>
      </trkpt>
      <trkpt lat="59.4947495" lon="17.8060383">
        <ele>9.2699</ele>
        <time>2011-08-30T20:25:01Z</time>
      </trkpt>
      <trkpt lat="59.4948315" lon="17.8061093">
        <ele>10.2312</ele>
        <time>2011-08-30T20:25:05Z</time>
      </trkpt>
      <trkpt lat="59.494924" lon="17.8061859">
        <ele>11.6732</ele>
        <time>2011-08-30T20:25:09Z</time>
      </trkpt>
      <trkpt lat="59.4950132" lon="17.8062283">
        <ele>14.0764</ele>
        <time>2011-08-30T20:25:13Z</time>
      </trkpt>
      <trkpt lat="59.495169" lon="17.8062328">
        <ele>16.4797</ele>
        <time>2011-08-30T20:25:19Z</time>
      </trkpt>
      <trkpt lat="59.4953096" lon="17.8062163">
        <ele>19.3638</ele>
        <time>2011-08-30T20:25:25Z</time>
      </trkpt>
      <trkpt lat="59.4954534" lon="17.806196">
        <ele>22.2476</ele>
        <time>2011-08-30T20:25:31Z</time>
      </trkpt>
      <trkpt lat="59.4956012" lon="17.806146">
        <ele>24.1703</ele>
        <time>2011-08-30T20:25:37Z</time>
      </trkpt>
      <trkpt lat="59.4957415" lon="17.8061165">
        <ele>23.6896</ele>
        <time>2011-08-30T20:25:43Z</time>
      </trkpt>
      <trkpt lat="59.4957648" lon="17.8061087">
        <ele>23.6896</ele>
        <time>2011-08-30T20:25:44Z</time>
      </trkpt>
      <trkpt lat="59.4958922" lon="17.8060988">
        <ele>23.209</ele>
        <time>2011-08-30T20:25:49Z</time>
      </trkpt>
      <trkpt lat="59.496043" lon="17.8060326">
        <ele>21.2864</ele>
        <time>2011-08-30T20:25:56Z</time>
      </trkpt>
      <trkpt lat="59.4961399" lon="17.8059668">
        <ele>22.2476</ele>
        <time>2011-08-30T20:26:00Z</time>
      </trkpt>
      <trkpt lat="59.4962272" lon="17.8058865">
        <ele>22.2476</ele>
        <time>2011-08-30T20:26:04Z</time>
      </trkpt>
      <trkpt lat="59.4963325" lon="17.805743">
        <ele>23.209</ele>
        <time>2011-08-30T20:26:09Z</time>
      </trkpt>
      <trkpt lat="59.4963826" lon="17.8056892">
        <ele>23.209</ele>
        <time>2011-08-30T20:26:11Z</time>
      </trkpt>
      <trkpt lat="59.496504" lon="17.8055348">
        <ele>21.767</ele>
        <time>2011-08-30T20:26:16Z</time>
      </trkpt>
      <trkpt lat="59.496532" lon="17.8055144">
        <ele>21.767</ele>
        <time>2011-08-30T20:26:17Z</time>
      </trkpt>
      <trkpt lat="59.4967088" lon="17.8054636">
        <ele>21.2864</ele>
        <time>2011-08-30T20:26:23Z</time>
      </trkpt>
      <trkpt lat="59.4968356" lon="17.8054835">
        <ele>19.8444</ele>
        <time>2011-08-30T20:26:28Z</time>
      </trkpt>
      <trkpt lat="59.496954" lon="17.8055612">
        <ele>17.9218</ele>
        <time>2011-08-30T20:26:33Z</time>
      </trkpt>
      <trkpt lat="59.497127" lon="17.8057158">
        <ele>15.0377</ele>
        <time>2011-08-30T20:26:40Z</time>
      </trkpt>
      <trkpt lat="59.4972956" lon="17.8058537">
        <ele>14.557</ele>
        <time>2011-08-30T20:26:47Z</time>
      </trkpt>
      <trkpt lat="59.4974306" lon="17.8059469">
        <ele>15.0377</ele>
        <time>2011-08-30T20:26:52Z</time>
      </trkpt>
      <trkpt lat="59.4975792" lon="17.8060533">
        <ele>15.5184</ele>
        <time>2011-08-30T20:26:58Z</time>
      </trkpt>
      <trkpt lat="59.4977124" lon="17.8061639">
        <ele>15.5184</ele>
        <time>2011-08-30T20:27:03Z</time>
      </trkpt>
      <trkpt lat="59.4978239" lon="17.8062919">
        <ele>16.4797</ele>
        <time>2011-08-30T20:27:08Z</time>
      </trkpt>
      <trkpt lat="59.4979271" lon="17.8064682">
        <ele>17.9218</ele>
        <time>2011-08-30T20:27:14Z</time>
      </trkpt>
      <trkpt lat="59.4980253" lon="17.8066441">
        <ele>18.4023</ele>
        <time>2011-08-30T20:27:20Z</time>
      </trkpt>
      <trkpt lat="59.4981103" lon="17.8067706">
        <ele>17.9218</ele>
        <time>2011-08-30T20:27:25Z</time>
      </trkpt>
      <trkpt lat="59.4981949" lon="17.8068865">
        <ele>16.9604</ele>
        <time>2011-08-30T20:27:28Z</time>
      </trkpt>
      <trkpt lat="59.4983975" lon="17.807071">
        <ele>15.999</ele>
        <time>2011-08-30T20:27:35Z</time>
      </trkpt>
      <trkpt lat="59.498442" lon="17.8071256">
        <ele>15.0377</ele>
        <time>2011-08-30T20:27:37Z</time>
      </trkpt>
      <trkpt lat="59.4985808" lon="17.8073077">
        <ele>12.1538</ele>
        <time>2011-08-30T20:27:44Z</time>
      </trkpt>
      <trkpt lat="59.4987113" lon="17.8074794">
        <ele>10.2312</ele>
        <time>2011-08-30T20:27:51Z</time>
      </trkpt>
      <trkpt lat="59.498818" lon="17.8076042">
        <ele>10.2312</ele>
        <time>2011-08-30T20:27:56Z</time>
      </trkpt>
      <trkpt lat="59.4989361" lon="17.8077078">
        <ele>11.6732</ele>
        <time>2011-08-30T20:28:01Z</time>
      </trkpt>
      <trkpt lat="59.4990635" lon="17.807828">
        <ele>14.0764</ele>
        <time>2011-08-30T20:28:07Z</time>
      </trkpt>
      <trkpt lat="59.4991797" lon="17.8079518">
        <ele>16.9604</ele>
        <time>2011-08-30T20:28:14Z</time>
      </trkpt>
      <trkpt lat="59.499337" lon="17.8080778">
        <ele>20.8057</ele>
        <time>2011-08-30T20:28:22Z</time>
      </trkpt>
      <trkpt lat="59.4994265" lon="17.8082223">
        <ele>21.767</ele>
        <time>2011-08-30T20:28:27Z</time>
      </trkpt>
      <trkpt lat="59.4995997" lon="17.8084077">
        <ele>27.0543</ele>
        <time>2011-08-30T20:28:33Z</time>
      </trkpt>
      <trkpt lat="59.4997198" lon="17.8086484">
        <ele>27.5349</ele>
        <time>2011-08-30T20:28:39Z</time>
      </trkpt>
      <trkpt lat="59.4997971" lon="17.8088251">
        <ele>27.0543</ele>
        <time>2011-08-30T20:28:44Z</time>
      </trkpt>
      <trkpt lat="59.4998903" lon="17.8090023">
        <ele>25.6123</ele>
        <time>2011-08-30T20:28:49Z</time>
      </trkpt>
      <trkpt lat="59.499954" lon="17.8091203">
        <ele>25.1317</ele>
        <time>2011-08-30T20:28:53Z</time>
      </trkpt>
      <trkpt lat="59.5000545" lon="17.8092487">
        <ele>24.651</ele>
        <time>2011-08-30T20:29:00Z</time>
      </trkpt>
      <trkpt lat="59.5001602" lon="17.8092881">
        <ele>26.0929</ele>
        <time>2011-08-30T20:29:07Z</time>
      </trkpt>
      <trkpt lat="59.5002669" lon="17.8093028">
        <ele>26.5736</ele>
        <time>2011-08-30T20:29:12Z</time>
      </trkpt>
      <trkpt lat="59.5002954" lon="17.8093205">
        <ele>26.5736</ele>
        <time>2011-08-30T20:29:13Z</time>
      </trkpt>
      <trkpt lat="59.5004465" lon="17.8094047">
        <ele>25.1317</ele>
        <time>2011-08-30T20:29:19Z</time>
      </trkpt>
      <trkpt lat="59.5006542" lon="17.809579">
        <ele>22.7283</ele>
        <time>2011-08-30T20:29:27Z</time>
      </trkpt>
      <trkpt lat="59.5007676" lon="17.8097221">
        <ele>21.2864</ele>
        <time>2011-08-30T20:29:32Z</time>
      </trkpt>
      <trkpt lat="59.5008828" lon="17.8099088">
        <ele>19.3638</ele>
        <time>2011-08-30T20:29:38Z</time>
      </trkpt>
      <trkpt lat="59.5010315" lon="17.8101688">
        <ele>19.3638</ele>
        <time>2011-08-30T20:29:46Z</time>
      </trkpt>
      <trkpt lat="59.501163" lon="17.8103878">
        <ele>20.8057</ele>
        <time>2011-08-30T20:29:52Z</time>
      </trkpt>
      <trkpt lat="59.5012564" lon="17.8105412">
        <ele>20.325</ele>
        <time>2011-08-30T20:29:57Z</time>
      </trkpt>
      <trkpt lat="59.5013479" lon="17.8107143">
        <ele>21.767</ele>
        <time>2011-08-30T20:30:02Z</time>
      </trkpt>
      <trkpt lat="59.5014464" lon="17.8109177">
        <ele>22.7283</ele>
        <time>2011-08-30T20:30:07Z</time>
      </trkpt>
      <trkpt lat="59.5015109" lon="17.8111013">
        <ele>23.6896</ele>
        <time>2011-08-30T20:30:11Z</time>
      </trkpt>
      <trkpt lat="59.5015306" lon="17.8112014">
        <ele>23.6896</ele>
        <time>2011-08-30T20:30:13Z</time>
      </trkpt>
      <trkpt lat="59.501539" lon="17.8115388">
        <ele>25.1317</ele>
        <time>2011-08-30T20:30:19Z</time>
      </trkpt>
      <trkpt lat="59.5015219" lon="17.8117949">
        <ele>25.6123</ele>
        <time>2011-08-30T20:30:24Z</time>
      </trkpt>
      <trkpt lat="59.5015211" lon="17.8118364">
        <ele>25.6123</ele>
        <time>2011-08-30T20:30:25Z</time>
      </trkpt>
      <trkpt lat="59.5015375" lon="17.8120607">
        <ele>28.0155</ele>
        <time>2011-08-30T20:30:30Z</time>
      </trkpt>
      <trkpt lat="59.5015086" lon="17.8122925">
        <ele>28.4962</ele>
        <time>2011-08-30T20:30:35Z</time>
      </trkpt>
      <trkpt lat="59.501481" lon="17.8125386">
        <ele>29.4575</ele>
        <time>2011-08-30T20:30:40Z</time>
      </trkpt>
      <trkpt lat="59.5014488" lon="17.8128349">
        <ele>30.4188</ele>
        <time>2011-08-30T20:30:46Z</time>
      </trkpt>
      <trkpt lat="59.5014293" lon="17.8130618">
        <ele>29.9381</ele>
        <time>2011-08-30T20:30:51Z</time>
      </trkpt>
      <trkpt lat="59.5014177" lon="17.8133646">
        <ele>29.4575</ele>
        <time>2011-08-30T20:30:57Z</time>
      </trkpt>
      <trkpt lat="59.501362" lon="17.8135873">
        <ele>28.0155</ele>
        <time>2011-08-30T20:31:02Z</time>
      </trkpt>
      <trkpt lat="59.5012962" lon="17.813897">
        <ele>27.0543</ele>
        <time>2011-08-30T20:31:09Z</time>
      </trkpt>
      <trkpt lat="59.5012483" lon="17.8141435">
        <ele>27.5349</ele>
        <time>2011-08-30T20:31:15Z</time>
      </trkpt>
      <trkpt lat="59.5011802" lon="17.8143651">
        <ele>27.5349</ele>
        <time>2011-08-30T20:31:20Z</time>
      </trkpt>
      <trkpt lat="59.5010991" lon="17.8145648">
        <ele>26.5736</ele>
        <time>2011-08-30T20:31:25Z</time>
      </trkpt>
      <trkpt lat="59.5010444" lon="17.8147764">
        <ele>27.0543</ele>
        <time>2011-08-30T20:31:30Z</time>
      </trkpt>
      <trkpt lat="59.5009893" lon="17.8150599">
        <ele>28.4962</ele>
        <time>2011-08-30T20:31:36Z</time>
      </trkpt>
      <trkpt lat="59.5009613" lon="17.8152786">
        <ele>28.9769</ele>
        <time>2011-08-30T20:31:41Z</time>
      </trkpt>
      <trkpt lat="59.5009522" lon="17.8153729">
        <ele>28.9769</ele>
        <time>2011-08-30T20:31:43Z</time>
      </trkpt>
      <trkpt lat="59.5009179" lon="17.8155453">
        <ele>28.9769</ele>
        <time>2011-08-30T20:31:47Z</time>
      </trkpt>
      <trkpt lat="59.5008821" lon="17.8157138">
        <ele>30.4188</ele>
        <time>2011-08-30T20:31:51Z</time>
      </trkpt>
      <trkpt lat="59.5007995" lon="17.8159022">
        <ele>28.9769</ele>
        <time>2011-08-30T20:31:56Z</time>
      </trkpt>
      <trkpt lat="59.5006833" lon="17.8160786">
        <ele>27.5349</ele>
        <time>2011-08-30T20:32:02Z</time>
      </trkpt>
      <trkpt lat="59.5005863" lon="17.8162641">
        <ele>28.9769</ele>
        <time>2011-08-30T20:32:08Z</time>
      </trkpt>
      <trkpt lat="59.5004931" lon="17.816501">
        <ele>30.8995</ele>
        <time>2011-08-30T20:32:15Z</time>
      </trkpt>
      <trkpt lat="59.5004076" lon="17.8167327">
        <ele>31.8607</ele>
        <time>2011-08-30T20:32:21Z</time>
      </trkpt>
      <trkpt lat="59.5003302" lon="17.8168999">
        <ele>33.7834</ele>
        <time>2011-08-30T20:32:26Z</time>
      </trkpt>
      <trkpt lat="59.5002461" lon="17.817087">
        <ele>37.1481</ele>
        <time>2011-08-30T20:32:32Z</time>
      </trkpt>
      <trkpt lat="59.500188" lon="17.8171895">
        <ele>35.7061</ele>
        <time>2011-08-30T20:32:35Z</time>
      </trkpt>
      <trkpt lat="59.5001527" lon="17.8174838">
        <ele>37.6287</ele>
        <time>2011-08-30T20:32:42Z</time>
      </trkpt>
      <trkpt lat="59.5001264" lon="17.8177847">
        <ele>40.5128</ele>
        <time>2011-08-30T20:32:49Z</time>
      </trkpt>
      <trkpt lat="59.5000453" lon="17.8179991">
        <ele>40.5128</ele>
        <time>2011-08-30T20:32:55Z</time>
      </trkpt>
      <trkpt lat="59.4999767" lon="17.8180903">
        <ele>39.0707</ele>
        <time>2011-08-30T20:32:59Z</time>
      </trkpt>
      <trkpt lat="59.499917" lon="17.8181752">
        <ele>37.6287</ele>
        <time>2011-08-30T20:33:02Z</time>
      </trkpt>
      <trkpt lat="59.4997979" lon="17.8183233">
        <ele>33.3029</ele>
        <time>2011-08-30T20:33:08Z</time>
      </trkpt>
      <trkpt lat="59.499749" lon="17.8183304">
        <ele>33.3029</ele>
        <time>2011-08-30T20:33:10Z</time>
      </trkpt>
      <trkpt lat="59.4995971" lon="17.818276">
        <ele>34.2642</ele>
        <time>2011-08-30T20:33:16Z</time>
      </trkpt>
      <trkpt lat="59.4994694" lon="17.8182795">
        <ele>38.1094</ele>
        <time>2011-08-30T20:33:21Z</time>
      </trkpt>
      <trkpt lat="59.4993166" lon="17.8182385">
        <ele>40.5128</ele>
        <time>2011-08-30T20:33:27Z</time>
      </trkpt>
      <trkpt lat="59.499189" lon="17.8181752">
        <ele>45.7999</ele>
        <time>2011-08-30T20:33:32Z</time>
      </trkpt>
      <trkpt lat="59.4990609" lon="17.8181493">
        <ele>49.6453</ele>
        <time>2011-08-30T20:33:37Z</time>
      </trkpt>
      <trkpt lat="59.4989247" lon="17.8181269">
        <ele>52.0486</ele>
        <time>2011-08-30T20:33:42Z</time>
      </trkpt>
      <trkpt lat="59.4988092" lon="17.8180866">
        <ele>53.4905</ele>
        <time>2011-08-30T20:33:47Z</time>
      </trkpt>
      <trkpt lat="59.4986764" lon="17.8180673">
        <ele>53.0098</ele>
        <time>2011-08-30T20:33:53Z</time>
      </trkpt>
      <trkpt lat="59.498542" lon="17.8180483">
        <ele>48.2034</ele>
        <time>2011-08-30T20:34:00Z</time>
      </trkpt>
      <trkpt lat="59.4984101" lon="17.8180514">
        <ele>47.2418</ele>
        <time>2011-08-30T20:34:06Z</time>
      </trkpt>
      <trkpt lat="59.4982944" lon="17.8179462">
        <ele>42.916</ele>
        <time>2011-08-30T20:34:12Z</time>
      </trkpt>
      <trkpt lat="59.4981494" lon="17.8178831">
        <ele>39.5513</ele>
        <time>2011-08-30T20:34:18Z</time>
      </trkpt>
      <trkpt lat="59.4980597" lon="17.8179127">
        <ele>38.1094</ele>
        <time>2011-08-30T20:34:22Z</time>
      </trkpt>
      <trkpt lat="59.4979306" lon="17.8179433">
        <ele>36.1868</ele>
        <time>2011-08-30T20:34:28Z</time>
      </trkpt>
      <trkpt lat="59.4978584" lon="17.8180404">
        <ele>35.7061</ele>
        <time>2011-08-30T20:34:32Z</time>
      </trkpt>
      <trkpt lat="59.4978" lon="17.8181696">
        <ele>39.5513</ele>
        <time>2011-08-30T20:34:37Z</time>
      </trkpt>
      <trkpt lat="59.4976893" lon="17.8183353">
        <ele>40.9934</ele>
        <time>2011-08-30T20:34:43Z</time>
      </trkpt>
      <trkpt lat="59.497623" lon="17.8184513">
        <ele>40.5128</ele>
        <time>2011-08-30T20:34:48Z</time>
      </trkpt>
      <trkpt lat="59.497484" lon="17.8185901">
        <ele>38.5901</ele>
        <time>2011-08-30T20:34:54Z</time>
      </trkpt>
      <trkpt lat="59.4974414" lon="17.8186264">
        <ele>38.1094</ele>
        <time>2011-08-30T20:34:56Z</time>
      </trkpt>
      <trkpt lat="59.4972988" lon="17.8188025">
        <ele>39.0707</ele>
        <time>2011-08-30T20:35:02Z</time>
      </trkpt>
      <trkpt lat="59.4971266" lon="17.8189279">
        <ele>38.1094</ele>
        <time>2011-08-30T20:35:09Z</time>
      </trkpt>
      <trkpt lat="59.4970035" lon="17.8189836">
        <ele>40.5128</ele>
        <time>2011-08-30T20:35:13Z</time>
      </trkpt>
      <trkpt lat="59.4968957" lon="17.8188919">
        <ele>41.474</ele>
        <time>2011-08-30T20:35:18Z</time>
      </trkpt>
      <trkpt lat="59.4968179" lon="17.8187886">
        <ele>43.3966</ele>
        <time>2011-08-30T20:35:22Z</time>
      </trkpt>
      <trkpt lat="59.4966884" lon="17.8187119">
        <ele>43.8773</ele>
        <time>2011-08-30T20:35:27Z</time>
      </trkpt>
      <trkpt lat="59.4966347" lon="17.8187127">
        <ele>43.3966</ele>
        <time>2011-08-30T20:35:29Z</time>
      </trkpt>
      <trkpt lat="59.4965004" lon="17.8187197">
        <ele>42.4354</ele>
        <time>2011-08-30T20:35:34Z</time>
      </trkpt>
      <trkpt lat="59.4964061" lon="17.8188381">
        <ele>43.3966</ele>
        <time>2011-08-30T20:35:41Z</time>
      </trkpt>
      <trkpt lat="59.4963958" lon="17.8188609">
        <ele>43.3966</ele>
        <time>2011-08-30T20:35:42Z</time>
      </trkpt>
      <trkpt lat="59.4963172" lon="17.8190496">
        <ele>45.3192</ele>
        <time>2011-08-30T20:35:49Z</time>
      </trkpt>
      <trkpt lat="59.4962352" lon="17.8191528">
        <ele>45.3192</ele>
        <time>2011-08-30T20:35:54Z</time>
      </trkpt>
      <trkpt lat="59.496125" lon="17.8192309">
        <ele>44.358</ele>
        <time>2011-08-30T20:36:01Z</time>
      </trkpt>
      <trkpt lat="59.496049" lon="17.8192857">
        <ele>43.8773</ele>
        <time>2011-08-30T20:36:05Z</time>
      </trkpt>
      <trkpt lat="59.4959752" lon="17.8193618">
        <ele>43.3966</ele>
        <time>2011-08-30T20:36:10Z</time>
      </trkpt>
      <trkpt lat="59.4958332" lon="17.8194848">
        <ele>41.474</ele>
        <time>2011-08-30T20:36:17Z</time>
      </trkpt>
      <trkpt lat="59.4957017" lon="17.8195706">
        <ele>40.5128</ele>
        <time>2011-08-30T20:36:23Z</time>
      </trkpt>
      <trkpt lat="59.495589" lon="17.819664">
        <ele>39.5513</ele>
        <time>2011-08-30T20:36:28Z</time>
      </trkpt>
      <trkpt lat="59.4954614" lon="17.8197676">
        <ele>40.5128</ele>
        <time>2011-08-30T20:36:34Z</time>
      </trkpt>
      <trkpt lat="59.495351" lon="17.8199075">
        <ele>44.8386</ele>
        <time>2011-08-30T20:36:40Z</time>
      </trkpt>
      <trkpt lat="59.4953137" lon="17.8200358">
        <ele>49.1646</ele>
        <time>2011-08-30T20:36:44Z</time>
      </trkpt>
      <trkpt lat="59.4952026" lon="17.8202669">
        <ele>51.5679</ele>
        <time>2011-08-30T20:36:50Z</time>
      </trkpt>
      <trkpt lat="59.4951153" lon="17.820341">
        <ele>51.5679</ele>
        <time>2011-08-30T20:36:53Z</time>
      </trkpt>
      <trkpt lat="59.4949928" lon="17.820312">
        <ele>53.0098</ele>
        <time>2011-08-30T20:36:58Z</time>
      </trkpt>
      <trkpt lat="59.4949025" lon="17.8202038">
        <ele>55.4131</ele>
        <time>2011-08-30T20:37:03Z</time>
      </trkpt>
      <trkpt lat="59.4948712" lon="17.8201401">
        <ele>56.8551</ele>
        <time>2011-08-30T20:37:05Z</time>
      </trkpt>
      <trkpt lat="59.4947872" lon="17.8200364">
        <ele>57.3358</ele>
        <time>2011-08-30T20:37:10Z</time>
      </trkpt>
      <trkpt lat="59.4946822" lon="17.8199404">
        <ele>59.7391</ele>
        <time>2011-08-30T20:37:15Z</time>
      </trkpt>
      <trkpt lat="59.4946019" lon="17.8198623">
        <ele>60.2197</ele>
        <time>2011-08-30T20:37:19Z</time>
      </trkpt>
      <trkpt lat="59.4944536" lon="17.8197733">
        <ele>59.7391</ele>
        <time>2011-08-30T20:37:26Z</time>
      </trkpt>
      <trkpt lat="59.4943575" lon="17.819737">
        <ele>59.7391</ele>
        <time>2011-08-30T20:37:30Z</time>
      </trkpt>
      <trkpt lat="59.4942159" lon="17.8196479">
        <ele>59.7391</ele>
        <time>2011-08-30T20:37:37Z</time>
      </trkpt>
      <trkpt lat="59.4941035" lon="17.819597">
        <ele>59.2584</ele>
        <time>2011-08-30T20:37:42Z</time>
      </trkpt>
      <trkpt lat="59.4939906" lon="17.8195277">
        <ele>59.7391</ele>
        <time>2011-08-30T20:37:47Z</time>
      </trkpt>
      <trkpt lat="59.493871" lon="17.8194037">
        <ele>59.2584</ele>
        <time>2011-08-30T20:37:53Z</time>
      </trkpt>
      <trkpt lat="59.4938266" lon="17.8193724">
        <ele>58.7777</ele>
        <time>2011-08-30T20:37:55Z</time>
      </trkpt>
      <trkpt lat="59.4936611" lon="17.8192722">
        <ele>58.7777</ele>
        <time>2011-08-30T20:38:02Z</time>
      </trkpt>
      <trkpt lat="59.4935343" lon="17.8191912">
        <ele>57.3358</ele>
        <time>2011-08-30T20:38:07Z</time>
      </trkpt>
      <trkpt lat="59.4934039" lon="17.8192315">
        <ele>58.2971</ele>
        <time>2011-08-30T20:38:12Z</time>
      </trkpt>
      <trkpt lat="59.4933757" lon="17.8192372">
        <ele>58.2971</ele>
        <time>2011-08-30T20:38:13Z</time>
      </trkpt>
      <trkpt lat="59.4932603" lon="17.8192784">
        <ele>59.2584</ele>
        <time>2011-08-30T20:38:17Z</time>
      </trkpt>
      <trkpt lat="59.4931178" lon="17.8192243">
        <ele>60.2197</ele>
        <time>2011-08-30T20:38:22Z</time>
      </trkpt>
      <trkpt lat="59.4930634" lon="17.819031">
        <ele>58.7777</ele>
        <time>2011-08-30T20:38:26Z</time>
      </trkpt>
      <trkpt lat="59.4930494" lon="17.8187176">
        <ele>56.3745</ele>
        <time>2011-08-30T20:38:31Z</time>
      </trkpt>
      <trkpt lat="59.4930121" lon="17.8184238">
        <ele>55.8938</ele>
        <time>2011-08-30T20:38:36Z</time>
      </trkpt>
      <trkpt lat="59.4929789" lon="17.8181933">
        <ele>53.9712</ele>
        <time>2011-08-30T20:38:40Z</time>
      </trkpt>
      <trkpt lat="59.4929229" lon="17.8180034">
        <ele>53.0098</ele>
        <time>2011-08-30T20:38:44Z</time>
      </trkpt>
      <trkpt lat="59.4928185" lon="17.8178095">
        <ele>55.8938</ele>
        <time>2011-08-30T20:38:50Z</time>
      </trkpt>
      <trkpt lat="59.4927236" lon="17.8178199">
        <ele>56.8551</ele>
        <time>2011-08-30T20:38:54Z</time>
      </trkpt>
      <trkpt lat="59.4926528" lon="17.8178768">
        <ele>57.3358</ele>
        <time>2011-08-30T20:38:57Z</time>
      </trkpt>
      <trkpt lat="59.492537" lon="17.8179609">
        <ele>58.7777</ele>
        <time>2011-08-30T20:39:02Z</time>
      </trkpt>
      <trkpt lat="59.4924879" lon="17.817972">
        <ele>59.2584</ele>
        <time>2011-08-30T20:39:04Z</time>
      </trkpt>
      <trkpt lat="59.4924159" lon="17.8179696">
        <ele>59.7391</ele>
        <time>2011-08-30T20:39:07Z</time>
      </trkpt>
      <trkpt lat="59.4922839" lon="17.8178404">
        <ele>59.2584</ele>
        <time>2011-08-30T20:39:13Z</time>
      </trkpt>
      <trkpt lat="59.4921657" lon="17.8177064">
        <ele>58.2971</ele>
        <time>2011-08-30T20:39:19Z</time>
      </trkpt>
      <trkpt lat="59.4920855" lon="17.8176189">
        <ele>58.2971</ele>
        <time>2011-08-30T20:39:24Z</time>
      </trkpt>
      <trkpt lat="59.4919968" lon="17.8176192">
        <ele>59.2584</ele>
        <time>2011-08-30T20:39:28Z</time>
      </trkpt>
      <trkpt lat="59.491885" lon="17.8175639">
        <ele>59.7391</ele>
        <time>2011-08-30T20:39:33Z</time>
      </trkpt>
      <trkpt lat="59.4917809" lon="17.8175027">
        <ele>60.7003</ele>
        <time>2011-08-30T20:39:38Z</time>
      </trkpt>
      <trkpt lat="59.4917611" lon="17.8174852">
        <ele>61.181</ele>
        <time>2011-08-30T20:39:39Z</time>
      </trkpt>
      <trkpt lat="59.4916068" lon="17.8174153">
        <ele>62.6229</ele>
        <time>2011-08-30T20:39:46Z</time>
      </trkpt>
      <trkpt lat="59.4914668" lon="17.8173792">
        <ele>61.181</ele>
        <time>2011-08-30T20:39:52Z</time>
      </trkpt>
      <trkpt lat="59.491353" lon="17.8173288">
        <ele>59.2584</ele>
        <time>2011-08-30T20:39:57Z</time>
      </trkpt>
      <trkpt lat="59.4912379" lon="17.8172548">
        <ele>58.2971</ele>
        <time>2011-08-30T20:40:02Z</time>
      </trkpt>
      <trkpt lat="59.4911096" lon="17.8171776">
        <ele>57.3358</ele>
        <time>2011-08-30T20:40:08Z</time>
      </trkpt>
      <trkpt lat="59.4910059" lon="17.8171179">
        <ele>55.8938</ele>
        <time>2011-08-30T20:40:13Z</time>
      </trkpt>
      <trkpt lat="59.4909018" lon="17.8170158">
        <ele>55.4131</ele>
        <time>2011-08-30T20:40:18Z</time>
      </trkpt>
      <trkpt lat="59.4908044" lon="17.8168646">
        <ele>55.4131</ele>
        <time>2011-08-30T20:40:22Z</time>
      </trkpt>
      <trkpt lat="59.4907132" lon="17.8167142">
        <ele>55.8938</ele>
        <time>2011-08-30T20:40:26Z</time>
      </trkpt>
      <trkpt lat="59.4905784" lon="17.8166243">
        <ele>54.9324</ele>
        <time>2011-08-30T20:40:31Z</time>
      </trkpt>
      <trkpt lat="59.4904581" lon="17.8166316">
        <ele>55.8938</ele>
        <time>2011-08-30T20:40:35Z</time>
      </trkpt>
      <trkpt lat="59.4903069" lon="17.8166366">
        <ele>56.3745</ele>
        <time>2011-08-30T20:40:40Z</time>
      </trkpt>
      <trkpt lat="59.490186" lon="17.8167658">
        <ele>56.3745</ele>
        <time>2011-08-30T20:40:45Z</time>
      </trkpt>
      <trkpt lat="59.4901154" lon="17.8169604">
        <ele>56.8551</ele>
        <time>2011-08-30T20:40:50Z</time>
      </trkpt>
      <trkpt lat="59.4900608" lon="17.817194">
        <ele>58.7777</ele>
        <time>2011-08-30T20:40:56Z</time>
      </trkpt>
      <trkpt lat="59.4900344" lon="17.8173165">
        <ele>59.2584</ele>
        <time>2011-08-30T20:40:59Z</time>
      </trkpt>
      <trkpt lat="59.490077" lon="17.8176513">
        <ele>62.6229</ele>
        <time>2011-08-30T20:41:06Z</time>
      </trkpt>
      <trkpt lat="59.4901057" lon="17.8179281">
        <ele>63.5844</ele>
        <time>2011-08-30T20:41:11Z</time>
      </trkpt>
      <trkpt lat="59.4901061" lon="17.8182212">
        <ele>65.0264</ele>
        <time>2011-08-30T20:41:16Z</time>
      </trkpt>
      <trkpt lat="59.4901647" lon="17.8184508">
        <ele>66.4683</ele>
        <time>2011-08-30T20:41:20Z</time>
      </trkpt>
      <trkpt lat="59.4902162" lon="17.8187005">
        <ele>68.8716</ele>
        <time>2011-08-30T20:41:25Z</time>
      </trkpt>
      <trkpt lat="59.4902199" lon="17.8189577">
        <ele>68.3909</ele>
        <time>2011-08-30T20:41:30Z</time>
      </trkpt>
      <trkpt lat="59.4902639" lon="17.819231">
        <ele>66.4683</ele>
        <time>2011-08-30T20:41:36Z</time>
      </trkpt>
      <trkpt lat="59.4902796" lon="17.8192654">
        <ele>66.4683</ele>
        <time>2011-08-30T20:41:37Z</time>
      </trkpt>
      <trkpt lat="59.4903393" lon="17.8193825">
        <ele>66.4683</ele>
        <time>2011-08-30T20:41:41Z</time>
      </trkpt>
      <trkpt lat="59.4904328" lon="17.8195345">
        <ele>62.1423</ele>
        <time>2011-08-30T20:41:48Z</time>
      </trkpt>
      <trkpt lat="59.4905589" lon="17.8196065">
        <ele>61.181</ele>
        <time>2011-08-30T20:41:54Z</time>
      </trkpt>
      <trkpt lat="59.4906771" lon="17.8196043">
        <ele>59.2584</ele>
        <time>2011-08-30T20:42:00Z</time>
      </trkpt>
      <trkpt lat="59.4907753" lon="17.8196117">
        <ele>58.7777</ele>
        <time>2011-08-30T20:42:04Z</time>
      </trkpt>
      <trkpt lat="59.4909069" lon="17.8195726">
        <ele>59.2584</ele>
        <time>2011-08-30T20:42:09Z</time>
      </trkpt>
      <trkpt lat="59.4910328" lon="17.8196251">
        <ele>57.3358</ele>
        <time>2011-08-30T20:42:14Z</time>
      </trkpt>
      <trkpt lat="59.4912089" lon="17.8197598">
        <ele>61.181</ele>
        <time>2011-08-30T20:42:20Z</time>
      </trkpt>
      <trkpt lat="59.4912906" lon="17.8198062">
        <ele>63.1036</ele>
        <time>2011-08-30T20:42:22Z</time>
      </trkpt>
      <trkpt lat="59.4914597" lon="17.8199878">
        <ele>65.5071</ele>
        <time>2011-08-30T20:42:29Z</time>
      </trkpt>
      <trkpt lat="59.49159" lon="17.8200706">
        <ele>64.0651</ele>
        <time>2011-08-30T20:42:34Z</time>
      </trkpt>
      <trkpt lat="59.4917037" lon="17.8201313">
        <ele>62.1423</ele>
        <time>2011-08-30T20:42:39Z</time>
      </trkpt>
      <trkpt lat="59.4917297" lon="17.8201383">
        <ele>61.6617</ele>
        <time>2011-08-30T20:42:40Z</time>
      </trkpt>
      <trkpt lat="59.4919108" lon="17.8202851">
        <ele>64.0651</ele>
        <time>2011-08-30T20:42:47Z</time>
      </trkpt>
      <trkpt lat="59.4920268" lon="17.8204989">
        <ele>66.949</ele>
        <time>2011-08-30T20:42:52Z</time>
      </trkpt>
      <trkpt lat="59.4920523" lon="17.8207793">
        <ele>68.8716</ele>
        <time>2011-08-30T20:42:57Z</time>
      </trkpt>
      <trkpt lat="59.491977" lon="17.8210158">
        <ele>62.1423</ele>
        <time>2011-08-30T20:43:02Z</time>
      </trkpt>
      <trkpt lat="59.4918953" lon="17.8212356">
        <ele>56.3745</ele>
        <time>2011-08-30T20:43:07Z</time>
      </trkpt>
      <trkpt lat="59.49183" lon="17.8215065">
        <ele>54.4518</ele>
        <time>2011-08-30T20:43:13Z</time>
      </trkpt>
      <trkpt lat="59.4917388" lon="17.8216821">
        <ele>52.0486</ele>
        <time>2011-08-30T20:43:18Z</time>
      </trkpt>
      <trkpt lat="59.4916221" lon="17.8217693">
        <ele>49.6453</ele>
        <time>2011-08-30T20:43:23Z</time>
      </trkpt>
      <trkpt lat="59.4914985" lon="17.8219215">
        <ele>48.2034</ele>
        <time>2011-08-30T20:43:28Z</time>
      </trkpt>
      <trkpt lat="59.4913724" lon="17.8220592">
        <ele>47.2418</ele>
        <time>2011-08-30T20:43:33Z</time>
      </trkpt>
      <trkpt lat="59.4913281" lon="17.8221645">
        <ele>48.684</ele>
        <time>2011-08-30T20:43:37Z</time>
      </trkpt>
      <trkpt lat="59.4913482" lon="17.8223457">
        <ele>51.5679</ele>
        <time>2011-08-30T20:43:41Z</time>
      </trkpt>
      <trkpt lat="59.4914228" lon="17.8225079">
        <ele>53.9712</ele>
        <time>2011-08-30T20:43:46Z</time>
      </trkpt>
      <trkpt lat="59.4915631" lon="17.8225647">
        <ele>55.8938</ele>
        <time>2011-08-30T20:43:52Z</time>
      </trkpt>
      <trkpt lat="59.491649" lon="17.8226307">
        <ele>53.9712</ele>
        <time>2011-08-30T20:43:56Z</time>
      </trkpt>
      <trkpt lat="59.4917574" lon="17.8226819">
        <ele>54.9324</ele>
        <time>2011-08-30T20:44:01Z</time>
      </trkpt>
      <trkpt lat="59.4918135" lon="17.8227171">
        <ele>53.9712</ele>
        <time>2011-08-30T20:44:04Z</time>
      </trkpt>
      <trkpt lat="59.491876" lon="17.8227429">
        <ele>53.0098</ele>
        <time>2011-08-30T20:44:07Z</time>
      </trkpt>
      <trkpt lat="59.4920344" lon="17.822734">
        <ele>53.4905</ele>
        <time>2011-08-30T20:44:13Z</time>
      </trkpt>
      <trkpt lat="59.4921736" lon="17.8226679">
        <ele>52.5292</ele>
        <time>2011-08-30T20:44:19Z</time>
      </trkpt>
      <trkpt lat="59.4923067" lon="17.822774">
        <ele>51.0872</ele>
        <time>2011-08-30T20:44:24Z</time>
      </trkpt>
      <trkpt lat="59.4923377" lon="17.8228042">
        <ele>51.0872</ele>
        <time>2011-08-30T20:44:25Z</time>
      </trkpt>
      <trkpt lat="59.4924552" lon="17.8228926">
        <ele>53.4905</ele>
        <time>2011-08-30T20:44:30Z</time>
      </trkpt>
      <trkpt lat="59.4924991" lon="17.8229027">
        <ele>53.9712</ele>
        <time>2011-08-30T20:44:32Z</time>
      </trkpt>
      <trkpt lat="59.49264" lon="17.8229316">
        <ele>57.3358</ele>
        <time>2011-08-30T20:44:38Z</time>
      </trkpt>
      <trkpt lat="59.4927542" lon="17.8229843">
        <ele>58.2971</ele>
        <time>2011-08-30T20:44:43Z</time>
      </trkpt>
      <trkpt lat="59.4928705" lon="17.8230725">
        <ele>60.2197</ele>
        <time>2011-08-30T20:44:48Z</time>
      </trkpt>
      <trkpt lat="59.4930018" lon="17.823246">
        <ele>60.7003</ele>
        <time>2011-08-30T20:44:54Z</time>
      </trkpt>
      <trkpt lat="59.4930785" lon="17.8234652">
        <ele>60.7003</ele>
        <time>2011-08-30T20:44:59Z</time>
      </trkpt>
      <trkpt lat="59.4931811" lon="17.8236323">
        <ele>61.181</ele>
        <time>2011-08-30T20:45:04Z</time>
      </trkpt>
      <trkpt lat="59.49323" lon="17.8238681">
        <ele>61.181</ele>
        <time>2011-08-30T20:45:09Z</time>
      </trkpt>
      <trkpt lat="59.493205" lon="17.8240864">
        <ele>57.8165</ele>
        <time>2011-08-30T20:45:14Z</time>
      </trkpt>
      <trkpt lat="59.4931609" lon="17.8244261">
        <ele>57.8165</ele>
        <time>2011-08-30T20:45:20Z</time>
      </trkpt>
      <trkpt lat="59.4931769" lon="17.8246912">
        <ele>57.8165</ele>
        <time>2011-08-30T20:45:24Z</time>
      </trkpt>
      <trkpt lat="59.4932074" lon="17.8250062">
        <ele>59.7391</ele>
        <time>2011-08-30T20:45:29Z</time>
      </trkpt>
      <trkpt lat="59.4932265" lon="17.8251715">
        <ele>61.181</ele>
        <time>2011-08-30T20:45:32Z</time>
      </trkpt>
      <trkpt lat="59.4932272" lon="17.8254836">
        <ele>62.1423</ele>
        <time>2011-08-30T20:45:38Z</time>
      </trkpt>
      <trkpt lat="59.493278" lon="17.825819">
        <ele>60.7003</ele>
        <time>2011-08-30T20:45:45Z</time>
      </trkpt>
      <trkpt lat="59.4932945" lon="17.8258656">
        <ele>62.1423</ele>
        <time>2011-08-30T20:45:47Z</time>
      </trkpt>
      <trkpt lat="59.4933419" lon="17.8260177">
        <ele>60.2197</ele>
        <time>2011-08-30T20:45:51Z</time>
      </trkpt>
      <trkpt lat="59.4934474" lon="17.8261241">
        <ele>57.3358</ele>
        <time>2011-08-30T20:45:56Z</time>
      </trkpt>
      <trkpt lat="59.4934815" lon="17.8261733">
        <ele>56.3745</ele>
        <time>2011-08-30T20:45:58Z</time>
      </trkpt>
      <trkpt lat="59.4935253" lon="17.8262115">
        <ele>55.8938</ele>
        <time>2011-08-30T20:46:00Z</time>
      </trkpt>
      <trkpt lat="59.4935764" lon="17.8262275">
        <ele>55.8938</ele>
        <time>2011-08-30T20:46:03Z</time>
      </trkpt>
      <trkpt lat="59.4937135" lon="17.8262052">
        <ele>58.7777</ele>
        <time>2011-08-30T20:46:10Z</time>
      </trkpt>
      <trkpt lat="59.4938126" lon="17.8262099">
        <ele>60.7003</ele>
        <time>2011-08-30T20:46:14Z</time>
      </trkpt>
      <trkpt lat="59.493958" lon="17.8262744">
        <ele>55.4131</ele>
        <time>2011-08-30T20:46:20Z</time>
      </trkpt>
      <trkpt lat="59.4940875" lon="17.8263407">
        <ele>55.8938</ele>
        <time>2011-08-30T20:46:25Z</time>
      </trkpt>
      <trkpt lat="59.4942331" lon="17.8264774">
        <ele>54.9324</ele>
        <time>2011-08-30T20:46:31Z</time>
      </trkpt>
      <trkpt lat="59.494338" lon="17.8265442">
        <ele>54.4518</ele>
        <time>2011-08-30T20:46:35Z</time>
      </trkpt>
      <trkpt lat="59.4944696" lon="17.8265863">
        <ele>55.4131</ele>
        <time>2011-08-30T20:46:40Z</time>
      </trkpt>
      <trkpt lat="59.4946087" lon="17.8267144">
        <ele>57.3358</ele>
        <time>2011-08-30T20:46:45Z</time>
      </trkpt>
      <trkpt lat="59.4947417" lon="17.8268384">
        <ele>56.8551</ele>
        <time>2011-08-30T20:46:50Z</time>
      </trkpt>
      <trkpt lat="59.4947574" lon="17.8268589">
        <ele>56.3745</ele>
        <time>2011-08-30T20:46:51Z</time>
      </trkpt>
      <trkpt lat="59.4948582" lon="17.8269874">
        <ele>54.9324</ele>
        <time>2011-08-30T20:46:57Z</time>
      </trkpt>
      <trkpt lat="59.4949469" lon="17.827045">
        <ele>53.9712</ele>
        <time>2011-08-30T20:47:02Z</time>
      </trkpt>
      <trkpt lat="59.49501" lon="17.8270819">
        <ele>52.5292</ele>
        <time>2011-08-30T20:47:05Z</time>
      </trkpt>
      <trkpt lat="59.4951541" lon="17.8271674">
        <ele>51.0872</ele>
        <time>2011-08-30T20:47:10Z</time>
      </trkpt>
      <trkpt lat="59.4951795" lon="17.8271908">
        <ele>50.6066</ele>
        <time>2011-08-30T20:47:11Z</time>
      </trkpt>
      <trkpt lat="59.4953127" lon="17.8272678">
        <ele>52.5292</ele>
        <time>2011-08-30T20:47:17Z</time>
      </trkpt>
      <trkpt lat="59.4954344" lon="17.8272295">
        <ele>49.6453</ele>
        <time>2011-08-30T20:47:22Z</time>
      </trkpt>
      <trkpt lat="59.4955425" lon="17.8271451">
        <ele>47.2418</ele>
        <time>2011-08-30T20:47:27Z</time>
      </trkpt>
      <trkpt lat="59.4956804" lon="17.8270169">
        <ele>45.7999</ele>
        <time>2011-08-30T20:47:33Z</time>
      </trkpt>
      <trkpt lat="59.4958119" lon="17.8269141">
        <ele>45.7999</ele>
        <time>2011-08-30T20:47:38Z</time>
      </trkpt>
      <trkpt lat="59.4959569" lon="17.8268152">
        <ele>44.8386</ele>
        <time>2011-08-30T20:47:44Z</time>
      </trkpt>
      <trkpt lat="59.4960948" lon="17.8266954">
        <ele>44.8386</ele>
        <time>2011-08-30T20:47:50Z</time>
      </trkpt>
      <trkpt lat="59.496226" lon="17.8265927">
        <ele>44.358</ele>
        <time>2011-08-30T20:47:55Z</time>
      </trkpt>
      <trkpt lat="59.4963408" lon="17.8264896">
        <ele>44.358</ele>
        <time>2011-08-30T20:48:00Z</time>
      </trkpt>
      <trkpt lat="59.4965077" lon="17.826336">
        <ele>46.2806</ele>
        <time>2011-08-30T20:48:07Z</time>
      </trkpt>
      <trkpt lat="59.4966241" lon="17.8262277">
        <ele>47.7225</ele>
        <time>2011-08-30T20:48:12Z</time>
      </trkpt>
      <trkpt lat="59.4967237" lon="17.826108">
        <ele>46.7612</ele>
        <time>2011-08-30T20:48:17Z</time>
      </trkpt>
      <trkpt lat="59.4968387" lon="17.8259822">
        <ele>47.7225</ele>
        <time>2011-08-30T20:48:22Z</time>
      </trkpt>
      <trkpt lat="59.4969783" lon="17.8258796">
        <ele>48.2034</ele>
        <time>2011-08-30T20:48:28Z</time>
      </trkpt>
      <trkpt lat="59.4971433" lon="17.8257465">
        <ele>51.0872</ele>
        <time>2011-08-30T20:48:35Z</time>
      </trkpt>
      <trkpt lat="59.4972645" lon="17.825617">
        <ele>51.0872</ele>
        <time>2011-08-30T20:48:40Z</time>
      </trkpt>
      <trkpt lat="59.4973649" lon="17.8254929">
        <ele>52.0486</ele>
        <time>2011-08-30T20:48:45Z</time>
      </trkpt>
      <trkpt lat="59.4974752" lon="17.8253874">
        <ele>53.0098</ele>
        <time>2011-08-30T20:48:50Z</time>
      </trkpt>
      <trkpt lat="59.4976073" lon="17.8252558">
        <ele>56.3745</ele>
        <time>2011-08-30T20:48:56Z</time>
      </trkpt>
      <trkpt lat="59.4977177" lon="17.8251227">
        <ele>57.3358</ele>
        <time>2011-08-30T20:49:01Z</time>
      </trkpt>
      <trkpt lat="59.4978455" lon="17.8250214">
        <ele>57.8165</ele>
        <time>2011-08-30T20:49:06Z</time>
      </trkpt>
      <trkpt lat="59.4979758" lon="17.8249586">
        <ele>56.3745</ele>
        <time>2011-08-30T20:49:11Z</time>
      </trkpt>
      <trkpt lat="59.4981924" lon="17.8247924">
        <ele>52.5292</ele>
        <time>2011-08-30T20:49:19Z</time>
      </trkpt>
      <trkpt lat="59.4983426" lon="17.8246716">
        <ele>51.0872</ele>
        <time>2011-08-30T20:49:25Z</time>
      </trkpt>
      <trkpt lat="59.4984539" lon="17.8245465">
        <ele>51.0872</ele>
        <time>2011-08-30T20:49:30Z</time>
      </trkpt>
      <trkpt lat="59.4985802" lon="17.8244048">
        <ele>49.6453</ele>
        <time>2011-08-30T20:49:36Z</time>
      </trkpt>
      <trkpt lat="59.4987266" lon="17.8243015">
        <ele>49.6453</ele>
        <time>2011-08-30T20:49:41Z</time>
      </trkpt>
      <trkpt lat="59.4989179" lon="17.8241427">
        <ele>50.126</ele>
        <time>2011-08-30T20:49:48Z</time>
      </trkpt>
      <trkpt lat="59.4990572" lon="17.824041">
        <ele>49.6453</ele>
        <time>2011-08-30T20:49:54Z</time>
      </trkpt>
      <trkpt lat="59.4990785" lon="17.8240236">
        <ele>49.6453</ele>
        <time>2011-08-30T20:49:55Z</time>
      </trkpt>
      <trkpt lat="59.4991866" lon="17.823956">
        <ele>50.126</ele>
        <time>2011-08-30T20:49:59Z</time>
      </trkpt>
      <trkpt lat="59.499321" lon="17.8238693">
        <ele>48.684</ele>
        <time>2011-08-30T20:50:05Z</time>
      </trkpt>
      <trkpt lat="59.4994675" lon="17.8237697">
        <ele>46.7612</ele>
        <time>2011-08-30T20:50:11Z</time>
      </trkpt>
      <trkpt lat="59.4995801" lon="17.8236972">
        <ele>45.7999</ele>
        <time>2011-08-30T20:50:16Z</time>
      </trkpt>
      <trkpt lat="59.4997437" lon="17.8235646">
        <ele>45.7999</ele>
        <time>2011-08-30T20:50:23Z</time>
      </trkpt>
      <trkpt lat="59.4998839" lon="17.8234273">
        <ele>45.7999</ele>
        <time>2011-08-30T20:50:29Z</time>
      </trkpt>
      <trkpt lat="59.5" lon="17.8233139">
        <ele>45.3192</ele>
        <time>2011-08-30T20:50:34Z</time>
      </trkpt>
      <trkpt lat="59.5001515" lon="17.8231962">
        <ele>42.916</ele>
        <time>2011-08-30T20:50:40Z</time>
      </trkpt>
      <trkpt lat="59.5002983" lon="17.8230681">
        <ele>42.4354</ele>
        <time>2011-08-30T20:50:46Z</time>
      </trkpt>
      <trkpt lat="59.500475" lon="17.8229461">
        <ele>43.8773</ele>
        <time>2011-08-30T20:50:53Z</time>
      </trkpt>
      <trkpt lat="59.5005761" lon="17.8228535">
        <ele>43.8773</ele>
        <time>2011-08-30T20:50:58Z</time>
      </trkpt>
      <trkpt lat="59.500699" lon="17.8227431">
        <ele>44.8386</ele>
        <time>2011-08-30T20:51:03Z</time>
      </trkpt>
      <trkpt lat="59.5008803" lon="17.8225747">
        <ele>46.2806</ele>
        <time>2011-08-30T20:51:10Z</time>
      </trkpt>
      <trkpt lat="59.5010875" lon="17.8224218">
        <ele>44.8386</ele>
        <time>2011-08-30T20:51:18Z</time>
      </trkpt>
      <trkpt lat="59.5012094" lon="17.822342">
        <ele>43.8773</ele>
        <time>2011-08-30T20:51:23Z</time>
      </trkpt>
      <trkpt lat="59.5013107" lon="17.8222226">
        <ele>42.916</ele>
        <time>2011-08-30T20:51:28Z</time>
      </trkpt>
      <trkpt lat="59.501408" lon="17.8221008">
        <ele>41.9547</ele>
        <time>2011-08-30T20:51:33Z</time>
      </trkpt>
      <trkpt lat="59.5014952" lon="17.8220471">
        <ele>41.474</ele>
        <time>2011-08-30T20:51:37Z</time>
      </trkpt>
      <trkpt lat="59.5015957" lon="17.8219979">
        <ele>41.474</ele>
        <time>2011-08-30T20:51:41Z</time>
      </trkpt>
      <trkpt lat="59.5017116" lon="17.8218065">
        <ele>39.5513</ele>
        <time>2011-08-30T20:51:46Z</time>
      </trkpt>
      <trkpt lat="59.5018428" lon="17.821618">
        <ele>38.5901</ele>
        <time>2011-08-30T20:51:52Z</time>
      </trkpt>
      <trkpt lat="59.5019322" lon="17.8214812">
        <ele>40.0321</ele>
        <time>2011-08-30T20:51:57Z</time>
      </trkpt>
      <trkpt lat="59.5020928" lon="17.8213455">
        <ele>40.5128</ele>
        <time>2011-08-30T20:52:04Z</time>
      </trkpt>
      <trkpt lat="59.5022268" lon="17.8212409">
        <ele>37.6287</ele>
        <time>2011-08-30T20:52:09Z</time>
      </trkpt>
      <trkpt lat="59.5023647" lon="17.8211156">
        <ele>36.6675</ele>
        <time>2011-08-30T20:52:15Z</time>
      </trkpt>
      <trkpt lat="59.50247" lon="17.8209688">
        <ele>37.1481</ele>
        <time>2011-08-30T20:52:21Z</time>
      </trkpt>
      <trkpt lat="59.5025768" lon="17.8208653">
        <ele>39.0707</ele>
        <time>2011-08-30T20:52:26Z</time>
      </trkpt>
      <trkpt lat="59.5026728" lon="17.820799">
        <ele>41.474</ele>
        <time>2011-08-30T20:52:30Z</time>
      </trkpt>
      <trkpt lat="59.5027943" lon="17.8207005">
        <ele>41.474</ele>
        <time>2011-08-30T20:52:35Z</time>
      </trkpt>
      <trkpt lat="59.5029249" lon="17.8206203">
        <ele>40.5128</ele>
        <time>2011-08-30T20:52:40Z</time>
      </trkpt>
      <trkpt lat="59.5030482" lon="17.8204892">
        <ele>40.0321</ele>
        <time>2011-08-30T20:52:45Z</time>
      </trkpt>
      <trkpt lat="59.5031805" lon="17.8203597">
        <ele>41.474</ele>
        <time>2011-08-30T20:52:50Z</time>
      </trkpt>
      <trkpt lat="59.5032905" lon="17.820256">
        <ele>42.916</ele>
        <time>2011-08-30T20:52:55Z</time>
      </trkpt>
      <trkpt lat="59.5034039" lon="17.8201395">
        <ele>42.916</ele>
        <time>2011-08-30T20:53:01Z</time>
      </trkpt>
      <trkpt lat="59.5035446" lon="17.8200162">
        <ele>45.3192</ele>
        <time>2011-08-30T20:53:07Z</time>
      </trkpt>
      <trkpt lat="59.5036851" lon="17.8198359">
        <ele>48.2034</ele>
        <time>2011-08-30T20:53:14Z</time>
      </trkpt>
      <trkpt lat="59.5037922" lon="17.8197578">
        <ele>48.2034</ele>
        <time>2011-08-30T20:53:19Z</time>
      </trkpt>
      <trkpt lat="59.5039231" lon="17.8196309">
        <ele>50.126</ele>
        <time>2011-08-30T20:53:24Z</time>
      </trkpt>
      <trkpt lat="59.5040489" lon="17.8195417">
        <ele>51.5679</ele>
        <time>2011-08-30T20:53:29Z</time>
      </trkpt>
      <trkpt lat="59.5041393" lon="17.8194564">
        <ele>53.0098</ele>
        <time>2011-08-30T20:53:33Z</time>
      </trkpt>
      <trkpt lat="59.5042326" lon="17.819365">
        <ele>53.9712</ele>
        <time>2011-08-30T20:53:38Z</time>
      </trkpt>
      <trkpt lat="59.5043287" lon="17.819267">
        <ele>53.9712</ele>
        <time>2011-08-30T20:53:43Z</time>
      </trkpt>
      <trkpt lat="59.5044317" lon="17.8191661">
        <ele>52.5292</ele>
        <time>2011-08-30T20:53:48Z</time>
      </trkpt>
      <trkpt lat="59.5045511" lon="17.8190583">
        <ele>52.0486</ele>
        <time>2011-08-30T20:53:53Z</time>
      </trkpt>
      <trkpt lat="59.5046534" lon="17.8189666">
        <ele>52.0486</ele>
        <time>2011-08-30T20:53:58Z</time>
      </trkpt>
      <trkpt lat="59.5047765" lon="17.8189481">
        <ele>52.5292</ele>
        <time>2011-08-30T20:54:03Z</time>
      </trkpt>
      <trkpt lat="59.5049234" lon="17.8188849">
        <ele>52.0486</ele>
        <time>2011-08-30T20:54:09Z</time>
      </trkpt>
      <trkpt lat="59.5050813" lon="17.8188336">
        <ele>52.5292</ele>
        <time>2011-08-30T20:54:15Z</time>
      </trkpt>
      <trkpt lat="59.5052205" lon="17.8187681">
        <ele>51.5679</ele>
        <time>2011-08-30T20:54:21Z</time>
      </trkpt>
      <trkpt lat="59.5053246" lon="17.8187021">
        <ele>49.1646</ele>
        <time>2011-08-30T20:54:26Z</time>
      </trkpt>
      <trkpt lat="59.5054797" lon="17.8186776">
        <ele>45.3192</ele>
        <time>2011-08-30T20:54:31Z</time>
      </trkpt>
      <trkpt lat="59.5056455" lon="17.8186719">
        <ele>43.3966</ele>
        <time>2011-08-30T20:54:37Z</time>
      </trkpt>
      <trkpt lat="59.5057908" lon="17.8185908">
        <ele>42.4354</ele>
        <time>2011-08-30T20:54:43Z</time>
      </trkpt>
      <trkpt lat="59.5058395" lon="17.8184441">
        <ele>41.474</ele>
        <time>2011-08-30T20:54:47Z</time>
      </trkpt>
      <trkpt lat="59.5058917" lon="17.8181945">
        <ele>40.9934</ele>
        <time>2011-08-30T20:54:53Z</time>
      </trkpt>
      <trkpt lat="59.5058645" lon="17.8179933">
        <ele>39.0707</ele>
        <time>2011-08-30T20:54:58Z</time>
      </trkpt>
      <trkpt lat="59.5058058" lon="17.8178499">
        <ele>39.5513</ele>
        <time>2011-08-30T20:55:02Z</time>
      </trkpt>
      <trkpt lat="59.50572" lon="17.8176375">
        <ele>40.0321</ele>
        <time>2011-08-30T20:55:08Z</time>
      </trkpt>
      <trkpt lat="59.5056253" lon="17.8174783">
        <ele>40.5128</ele>
        <time>2011-08-30T20:55:13Z</time>
      </trkpt>
      <trkpt lat="59.5054884" lon="17.8173444">
        <ele>41.9547</ele>
        <time>2011-08-30T20:55:19Z</time>
      </trkpt>
      <trkpt lat="59.5053989" lon="17.8171211">
        <ele>40.5128</ele>
        <time>2011-08-30T20:55:24Z</time>
      </trkpt>
      <trkpt lat="59.5053245" lon="17.8170636">
        <ele>40.0321</ele>
        <time>2011-08-30T20:55:27Z</time>
      </trkpt>
      <trkpt lat="59.5051537" lon="17.8169642">
        <ele>38.5901</ele>
        <time>2011-08-30T20:55:33Z</time>
      </trkpt>
      <trkpt lat="59.5050077" lon="17.8168901">
        <ele>39.5513</ele>
        <time>2011-08-30T20:55:38Z</time>
      </trkpt>
      <trkpt lat="59.5049757" lon="17.8168723">
        <ele>39.0707</ele>
        <time>2011-08-30T20:55:39Z</time>
      </trkpt>
      <trkpt lat="59.5048311" lon="17.8166834">
        <ele>39.5513</ele>
        <time>2011-08-30T20:55:45Z</time>
      </trkpt>
      <trkpt lat="59.5048052" lon="17.8166446">
        <ele>39.5513</ele>
        <time>2011-08-30T20:55:46Z</time>
      </trkpt>
      <trkpt lat="59.5047171" lon="17.8165341">
        <ele>39.5513</ele>
        <time>2011-08-30T20:55:50Z</time>
      </trkpt>
      <trkpt lat="59.5046395" lon="17.8164216">
        <ele>39.0707</ele>
        <time>2011-08-30T20:55:54Z</time>
      </trkpt>
      <trkpt lat="59.5045502" lon="17.8162259">
        <ele>35.7061</ele>
        <time>2011-08-30T20:55:59Z</time>
      </trkpt>
      <trkpt lat="59.5044679" lon="17.8160387">
        <ele>35.2255</ele>
        <time>2011-08-30T20:56:03Z</time>
      </trkpt>
      <trkpt lat="59.5043784" lon="17.815853">
        <ele>32.8223</ele>
        <time>2011-08-30T20:56:08Z</time>
      </trkpt>
      <trkpt lat="59.5042419" lon="17.8155852">
        <ele>30.4188</ele>
        <time>2011-08-30T20:56:15Z</time>
      </trkpt>
      <trkpt lat="59.5041426" lon="17.8154047">
        <ele>29.4575</ele>
        <time>2011-08-30T20:56:20Z</time>
      </trkpt>
      <trkpt lat="59.5040618" lon="17.8151546">
        <ele>27.0543</ele>
        <time>2011-08-30T20:56:26Z</time>
      </trkpt>
      <trkpt lat="59.5039963" lon="17.8149402">
        <ele>27.0543</ele>
        <time>2011-08-30T20:56:30Z</time>
      </trkpt>
      <trkpt lat="59.5039624" lon="17.8146698">
        <ele>23.6896</ele>
        <time>2011-08-30T20:56:35Z</time>
      </trkpt>
      <trkpt lat="59.5039303" lon="17.8144799">
        <ele>23.6896</ele>
        <time>2011-08-30T20:56:39Z</time>
      </trkpt>
      <trkpt lat="59.503894" lon="17.8142895">
        <ele>23.209</ele>
        <time>2011-08-30T20:56:43Z</time>
      </trkpt>
      <trkpt lat="59.5038449" lon="17.814089">
        <ele>23.209</ele>
        <time>2011-08-30T20:56:47Z</time>
      </trkpt>
      <trkpt lat="59.5038057" lon="17.813904">
        <ele>20.8057</ele>
        <time>2011-08-30T20:56:51Z</time>
      </trkpt>
      <trkpt lat="59.5037245" lon="17.8136731">
        <ele>18.4023</ele>
        <time>2011-08-30T20:56:56Z</time>
      </trkpt>
      <trkpt lat="59.5036706" lon="17.8134395">
        <ele>16.4797</ele>
        <time>2011-08-30T20:57:01Z</time>
      </trkpt>
      <trkpt lat="59.5035686" lon="17.8131066">
        <ele>15.5184</ele>
        <time>2011-08-30T20:57:08Z</time>
      </trkpt>
      <trkpt lat="59.5034476" lon="17.8127838">
        <ele>15.5184</ele>
        <time>2011-08-30T20:57:15Z</time>
      </trkpt>
      <trkpt lat="59.5033201" lon="17.8125325">
        <ele>14.557</ele>
        <time>2011-08-30T20:57:22Z</time>
      </trkpt>
      <trkpt lat="59.5031833" lon="17.8123751">
        <ele>13.5958</ele>
        <time>2011-08-30T20:57:28Z</time>
      </trkpt>
      <trkpt lat="59.5030567" lon="17.8122497">
        <ele>15.999</ele>
        <time>2011-08-30T20:57:34Z</time>
      </trkpt>
      <trkpt lat="59.5029056" lon="17.8121153">
        <ele>18.4023</ele>
        <time>2011-08-30T20:57:41Z</time>
      </trkpt>
      <trkpt lat="59.5028036" lon="17.8120165">
        <ele>20.325</ele>
        <time>2011-08-30T20:57:46Z</time>
      </trkpt>
      <trkpt lat="59.5026968" lon="17.8119316">
        <ele>21.2864</ele>
        <time>2011-08-30T20:57:51Z</time>
      </trkpt>
      <trkpt lat="59.5025999" lon="17.8118337">
        <ele>20.8057</ele>
        <time>2011-08-30T20:57:56Z</time>
      </trkpt>
      <trkpt lat="59.5025022" lon="17.8117259">
        <ele>20.325</ele>
        <time>2011-08-30T20:58:01Z</time>
      </trkpt>
      <trkpt lat="59.5023594" lon="17.8115862">
        <ele>19.3638</ele>
        <time>2011-08-30T20:58:08Z</time>
      </trkpt>
      <trkpt lat="59.5021975" lon="17.8115141">
        <ele>21.767</ele>
        <time>2011-08-30T20:58:15Z</time>
      </trkpt>
      <trkpt lat="59.5020949" lon="17.8114367">
        <ele>22.7283</ele>
        <time>2011-08-30T20:58:20Z</time>
      </trkpt>
      <trkpt lat="59.5019763" lon="17.8113164">
        <ele>24.1703</ele>
        <time>2011-08-30T20:58:26Z</time>
      </trkpt>
      <trkpt lat="59.5018565" lon="17.8112189">
        <ele>26.0929</ele>
        <time>2011-08-30T20:58:32Z</time>
      </trkpt>
      <trkpt lat="59.5017597" lon="17.8111246">
        <ele>25.1317</ele>
        <time>2011-08-30T20:58:37Z</time>
      </trkpt>
      <trkpt lat="59.5016654" lon="17.8110691">
        <ele>26.5736</ele>
        <time>2011-08-30T20:58:41Z</time>
      </trkpt>
      <trkpt lat="59.5015675" lon="17.8110448">
        <ele>28.0155</ele>
        <time>2011-08-30T20:58:45Z</time>
      </trkpt>
      <trkpt lat="59.5014494" lon="17.8108991">
        <ele>25.6123</ele>
        <time>2011-08-30T20:58:51Z</time>
      </trkpt>
      <trkpt lat="59.5013314" lon="17.8107235">
        <ele>26.5736</ele>
        <time>2011-08-30T20:58:57Z</time>
      </trkpt>
      <trkpt lat="59.501219" lon="17.8105179">
        <ele>27.0543</ele>
        <time>2011-08-30T20:59:03Z</time>
      </trkpt>
      <trkpt lat="59.5011107" lon="17.8103233">
        <ele>28.0155</ele>
        <time>2011-08-30T20:59:08Z</time>
      </trkpt>
      <trkpt lat="59.5010246" lon="17.8101186">
        <ele>27.5349</ele>
        <time>2011-08-30T20:59:13Z</time>
      </trkpt>
      <trkpt lat="59.500907" lon="17.8099197">
        <ele>28.4962</ele>
        <time>2011-08-30T20:59:19Z</time>
      </trkpt>
      <trkpt lat="59.5007695" lon="17.8097778">
        <ele>29.9381</ele>
        <time>2011-08-30T20:59:25Z</time>
      </trkpt>
      <trkpt lat="59.500629" lon="17.8097242">
        <ele>30.8995</ele>
        <time>2011-08-30T20:59:30Z</time>
      </trkpt>
      <trkpt lat="59.5005042" lon="17.8096608">
        <ele>32.8223</ele>
        <time>2011-08-30T20:59:35Z</time>
      </trkpt>
      <trkpt lat="59.5003679" lon="17.8096067">
        <ele>33.3029</ele>
        <time>2011-08-30T20:59:40Z</time>
      </trkpt>
      <trkpt lat="59.5002375" lon="17.8096">
        <ele>33.3029</ele>
        <time>2011-08-30T20:59:45Z</time>
      </trkpt>
      <trkpt lat="59.5000855" lon="17.8095474">
        <ele>33.7834</ele>
        <time>2011-08-30T20:59:51Z</time>
      </trkpt>
      <trkpt lat="59.4999421" lon="17.8094057">
        <ele>31.3801</ele>
        <time>2011-08-30T20:59:57Z</time>
      </trkpt>
      <trkpt lat="59.4998395" lon="17.8092069">
        <ele>28.9769</ele>
        <time>2011-08-30T21:00:02Z</time>
      </trkpt>
      <trkpt lat="59.4997531" lon="17.8089851">
        <ele>27.0543</ele>
        <time>2011-08-30T21:00:07Z</time>
      </trkpt>
      <trkpt lat="59.4996928" lon="17.808811">
        <ele>26.5736</ele>
        <time>2011-08-30T21:00:11Z</time>
      </trkpt>
      <trkpt lat="59.4995955" lon="17.8085723">
        <ele>26.0929</ele>
        <time>2011-08-30T21:00:17Z</time>
      </trkpt>
      <trkpt lat="59.4994959" lon="17.808386">
        <ele>27.5349</ele>
        <time>2011-08-30T21:00:22Z</time>
      </trkpt>
      <trkpt lat="59.4993618" lon="17.808293">
        <ele>28.4962</ele>
        <time>2011-08-30T21:00:27Z</time>
      </trkpt>
      <trkpt lat="59.4992149" lon="17.8081445">
        <ele>28.4962</ele>
        <time>2011-08-30T21:00:33Z</time>
      </trkpt>
      <trkpt lat="59.4990874" lon="17.8080325">
        <ele>28.4962</ele>
        <time>2011-08-30T21:00:38Z</time>
      </trkpt>
      <trkpt lat="59.4989947" lon="17.8079321">
        <ele>29.4575</ele>
        <time>2011-08-30T21:00:42Z</time>
      </trkpt>
      <trkpt lat="59.4988682" lon="17.8078418">
        <ele>30.4188</ele>
        <time>2011-08-30T21:00:47Z</time>
      </trkpt>
      <trkpt lat="59.4987454" lon="17.8077197">
        <ele>28.0155</ele>
        <time>2011-08-30T21:00:52Z</time>
      </trkpt>
      <trkpt lat="59.4985947" lon="17.8076012">
        <ele>25.1317</ele>
        <time>2011-08-30T21:00:58Z</time>
      </trkpt>
      <trkpt lat="59.4984455" lon="17.8074294">
        <ele>23.209</ele>
        <time>2011-08-30T21:01:04Z</time>
      </trkpt>
      <trkpt lat="59.4983186" lon="17.8072534">
        <ele>21.2864</ele>
        <time>2011-08-30T21:01:10Z</time>
      </trkpt>
      <trkpt lat="59.4981677" lon="17.8070338">
        <ele>22.2476</ele>
        <time>2011-08-30T21:01:17Z</time>
      </trkpt>
      <trkpt lat="59.4980582" lon="17.8068102">
        <ele>21.2864</ele>
        <time>2011-08-30T21:01:23Z</time>
      </trkpt>
      <trkpt lat="59.4979703" lon="17.8066138">
        <ele>20.325</ele>
        <time>2011-08-30T21:01:28Z</time>
      </trkpt>
      <trkpt lat="59.4979059" lon="17.8065013">
        <ele>20.8057</ele>
        <time>2011-08-30T21:01:31Z</time>
      </trkpt>
      <trkpt lat="59.4978435" lon="17.8063966">
        <ele>21.2864</ele>
        <time>2011-08-30T21:01:34Z</time>
      </trkpt>
      <trkpt lat="59.4977374" lon="17.8062517">
        <ele>21.2864</ele>
        <time>2011-08-30T21:01:39Z</time>
      </trkpt>
      <trkpt lat="59.4976162" lon="17.8061593">
        <ele>21.767</ele>
        <time>2011-08-30T21:01:44Z</time>
      </trkpt>
      <trkpt lat="59.4974687" lon="17.806">
        <ele>19.3638</ele>
        <time>2011-08-30T21:01:50Z</time>
      </trkpt>
      <trkpt lat="59.4973531" lon="17.8058707">
        <ele>17.4412</ele>
        <time>2011-08-30T21:01:55Z</time>
      </trkpt>
      <trkpt lat="59.4972443" lon="17.8057783">
        <ele>17.4412</ele>
        <time>2011-08-30T21:02:00Z</time>
      </trkpt>
      <trkpt lat="59.4971058" lon="17.8056549">
        <ele>16.9604</ele>
        <time>2011-08-30T21:02:06Z</time>
      </trkpt>
      <trkpt lat="59.496983" lon="17.8055669">
        <ele>16.9604</ele>
        <time>2011-08-30T21:02:11Z</time>
      </trkpt>
      <trkpt lat="59.4968226" lon="17.8055193">
        <ele>16.9604</ele>
        <time>2011-08-30T21:02:17Z</time>
      </trkpt>
      <trkpt lat="59.4966919" lon="17.8055068">
        <ele>17.4412</ele>
        <time>2011-08-30T21:02:22Z</time>
      </trkpt>
      <trkpt lat="59.496576" lon="17.8055962">
        <ele>17.9218</ele>
        <time>2011-08-30T21:02:27Z</time>
      </trkpt>
      <trkpt lat="59.4964563" lon="17.8057325">
        <ele>16.4797</ele>
        <time>2011-08-30T21:02:33Z</time>
      </trkpt>
      <trkpt lat="59.4963752" lon="17.805886">
        <ele>16.9604</ele>
        <time>2011-08-30T21:02:38Z</time>
      </trkpt>
      <trkpt lat="59.4962771" lon="17.806008">
        <ele>15.5184</ele>
        <time>2011-08-30T21:02:42Z</time>
      </trkpt>
      <trkpt lat="59.4961568" lon="17.8060836">
        <ele>14.0764</ele>
        <time>2011-08-30T21:02:47Z</time>
      </trkpt>
      <trkpt lat="59.4960218" lon="17.8061007">
        <ele>12.1538</ele>
        <time>2011-08-30T21:02:52Z</time>
      </trkpt>
      <trkpt lat="59.4959113" lon="17.8061347">
        <ele>11.6732</ele>
        <time>2011-08-30T21:02:56Z</time>
      </trkpt>
      <trkpt lat="59.4957218" lon="17.8061123">
        <ele>8.78918</ele>
        <time>2011-08-30T21:03:04Z</time>
      </trkpt>
      <trkpt lat="59.4955763" lon="17.8061211">
        <ele>5.42456</ele>
        <time>2011-08-30T21:03:10Z</time>
      </trkpt>
      <trkpt lat="59.4954565" lon="17.8061189">
        <ele>2.54065</ele>
        <time>2011-08-30T21:03:15Z</time>
      </trkpt>
      <trkpt lat="59.4952914" lon="17.8060963">
        <ele>1.57935</ele>
        <time>2011-08-30T21:03:21Z</time>
      </trkpt>
      <trkpt lat="59.4951391" lon="17.8060801">
        <ele>1.57935</ele>
        <time>2011-08-30T21:03:26Z</time>
      </trkpt>
      <trkpt lat="59.495027" lon="17.8060275">
        <ele>0</ele>
        <time>2011-08-30T21:03:30Z</time>
      </trkpt>
      <trkpt lat="59.4948473" lon="17.8059802">
        <ele>2.06006</ele>
        <time>2011-08-30T21:03:36Z</time>
      </trkpt>
      <trkpt lat="59.4946775" lon="17.805885">
        <ele>3.50195</ele>
        <time>2011-08-30T21:03:42Z</time>
      </trkpt>
      <trkpt lat="59.4944823" lon="17.8057456">
        <ele>4.94385</ele>
        <time>2011-08-30T21:03:49Z</time>
      </trkpt>
      <trkpt lat="59.4943191" lon="17.805649">
        <ele>5.42456</ele>
        <time>2011-08-30T21:03:55Z</time>
      </trkpt>
      <trkpt lat="59.4941513" lon="17.8055437">
        <ele>6.38586</ele>
        <time>2011-08-30T21:04:01Z</time>
      </trkpt>
      <trkpt lat="59.4939895" lon="17.8054721">
        <ele>8.30859</ele>
        <time>2011-08-30T21:04:07Z</time>
      </trkpt>
      <trkpt lat="59.4938532" lon="17.805402">
        <ele>8.78918</ele>
        <time>2011-08-30T21:04:12Z</time>
      </trkpt>
      <trkpt lat="59.4937156" lon="17.8052807">
        <ele>8.78918</ele>
        <time>2011-08-30T21:04:18Z</time>
      </trkpt>
      <trkpt lat="59.4935643" lon="17.8052158">
        <ele>8.78918</ele>
        <time>2011-08-30T21:04:24Z</time>
      </trkpt>
      <trkpt lat="59.493389" lon="17.805112">
        <ele>9.2699</ele>
        <time>2011-08-30T21:04:32Z</time>
      </trkpt>
      <trkpt lat="59.4932531" lon="17.8050217">
        <ele>10.2312</ele>
        <time>2011-08-30T21:04:38Z</time>
      </trkpt>
      <trkpt lat="59.4930879" lon="17.8049539">
        <ele>11.6732</ele>
        <time>2011-08-30T21:04:45Z</time>
      </trkpt>
      <trkpt lat="59.4930655" lon="17.8049468">
        <ele>11.6732</ele>
        <time>2011-08-30T21:04:46Z</time>
      </trkpt>
      <trkpt lat="59.4928997" lon="17.8048461">
        <ele>11.6732</ele>
        <time>2011-08-30T21:04:53Z</time>
      </trkpt>
      <trkpt lat="59.4927646" lon="17.8047562">
        <ele>10.7118</ele>
        <time>2011-08-30T21:04:59Z</time>
      </trkpt>
      <trkpt lat="59.4925688" lon="17.8046791">
        <ele>9.75061</ele>
        <time>2011-08-30T21:05:07Z</time>
      </trkpt>
      <trkpt lat="59.4924444" lon="17.8046234">
        <ele>10.2312</ele>
        <time>2011-08-30T21:05:12Z</time>
      </trkpt>
      <trkpt lat="59.4923413" lon="17.8045832">
        <ele>10.7118</ele>
        <time>2011-08-30T21:05:16Z</time>
      </trkpt>
      <trkpt lat="59.4922158" lon="17.8045132">
        <ele>11.6732</ele>
        <time>2011-08-30T21:05:21Z</time>
      </trkpt>
      <trkpt lat="59.4920831" lon="17.8044291">
        <ele>11.6732</ele>
        <time>2011-08-30T21:05:26Z</time>
      </trkpt>
      <trkpt lat="59.4919614" lon="17.8043444">
        <ele>11.1925</ele>
        <time>2011-08-30T21:05:31Z</time>
      </trkpt>
      <trkpt lat="59.4918009" lon="17.8042528">
        <ele>10.7118</ele>
        <time>2011-08-30T21:05:37Z</time>
      </trkpt>
      <trkpt lat="59.4916715" lon="17.8042127">
        <ele>8.78918</ele>
        <time>2011-08-30T21:05:42Z</time>
      </trkpt>
      <trkpt lat="59.4914964" lon="17.8042603">
        <ele>11.6732</ele>
        <time>2011-08-30T21:05:48Z</time>
      </trkpt>
      <trkpt lat="59.4913229" lon="17.8043063">
        <ele>12.6344</ele>
        <time>2011-08-30T21:05:54Z</time>
      </trkpt>
      <trkpt lat="59.4912213" lon="17.8042733">
        <ele>11.6732</ele>
        <time>2011-08-30T21:05:58Z</time>
      </trkpt>
      <trkpt lat="59.4910613" lon="17.8042273">
        <ele>10.7118</ele>
        <time>2011-08-30T21:06:04Z</time>
      </trkpt>
      <trkpt lat="59.4908598" lon="17.8042381">
        <ele>10.7118</ele>
        <time>2011-08-30T21:06:11Z</time>
      </trkpt>
      <trkpt lat="59.4906942" lon="17.8042953">
        <ele>10.7118</ele>
        <time>2011-08-30T21:06:17Z</time>
      </trkpt>
      <trkpt lat="59.4905281" lon="17.8043325">
        <ele>10.2312</ele>
        <time>2011-08-30T21:06:23Z</time>
      </trkpt>
      <trkpt lat="59.4903432" lon="17.8043605">
        <ele>7.82788</ele>
        <time>2011-08-30T21:06:30Z</time>
      </trkpt>
      <trkpt lat="59.4901277" lon="17.8043873">
        <ele>8.30859</ele>
        <time>2011-08-30T21:06:38Z</time>
      </trkpt>
      <trkpt lat="59.4899455" lon="17.8044034">
        <ele>9.75061</ele>
        <time>2011-08-30T21:06:45Z</time>
      </trkpt>
      <trkpt lat="59.4897714" lon="17.8044298">
        <ele>9.2699</ele>
        <time>2011-08-30T21:06:52Z</time>
      </trkpt>
      <trkpt lat="59.4896513" lon="17.8044335">
        <ele>8.78918</ele>
        <time>2011-08-30T21:06:57Z</time>
      </trkpt>
      <trkpt lat="59.4895171" lon="17.8044491">
        <ele>10.2312</ele>
        <time>2011-08-30T21:07:02Z</time>
      </trkpt>
      <trkpt lat="59.4893668" lon="17.8044267">
        <ele>14.0764</ele>
        <time>2011-08-30T21:07:08Z</time>
      </trkpt>
      <trkpt lat="59.4892903" lon="17.8043921">
        <ele>15.999</ele>
        <time>2011-08-30T21:07:11Z</time>
      </trkpt>
      <trkpt lat="59.4891751" lon="17.8043692">
        <ele>17.9218</ele>
        <time>2011-08-30T21:07:15Z</time>
      </trkpt>
      <trkpt lat="59.4890415" lon="17.804333">
        <ele>19.8444</ele>
        <time>2011-08-30T21:07:20Z</time>
      </trkpt>
      <trkpt lat="59.488913" lon="17.8042628">
        <ele>20.325</ele>
        <time>2011-08-30T21:07:25Z</time>
      </trkpt>
      <trkpt lat="59.4887841" lon="17.8041894">
        <ele>20.325</ele>
        <time>2011-08-30T21:07:30Z</time>
      </trkpt>
      <trkpt lat="59.4886546" lon="17.8041289">
        <ele>20.325</ele>
        <time>2011-08-30T21:07:35Z</time>
      </trkpt>
      <trkpt lat="59.4885044" lon="17.8040997">
        <ele>19.8444</ele>
        <time>2011-08-30T21:07:41Z</time>
      </trkpt>
      <trkpt lat="59.4883412" lon="17.8041449">
        <ele>21.767</ele>
        <time>2011-08-30T21:07:47Z</time>
      </trkpt>
      <trkpt lat="59.4881776" lon="17.804132">
        <ele>21.767</ele>
        <time>2011-08-30T21:07:53Z</time>
      </trkpt>
      <trkpt lat="59.4880253" lon="17.8041329">
        <ele>17.9218</ele>
        <time>2011-08-30T21:07:59Z</time>
      </trkpt>
      <trkpt lat="59.4878761" lon="17.8041506">
        <ele>15.999</ele>
        <time>2011-08-30T21:08:04Z</time>
      </trkpt>
      <trkpt lat="59.4877132" lon="17.8041522">
        <ele>13.5958</ele>
        <time>2011-08-30T21:08:10Z</time>
      </trkpt>
      <trkpt lat="59.4875254" lon="17.804119">
        <ele>10.2312</ele>
        <time>2011-08-30T21:08:17Z</time>
      </trkpt>
      <trkpt lat="59.487338" lon="17.8040859">
        <ele>10.7118</ele>
        <time>2011-08-30T21:08:24Z</time>
      </trkpt>
      <trkpt lat="59.4871484" lon="17.804077">
        <ele>8.78918</ele>
        <time>2011-08-30T21:08:31Z</time>
      </trkpt>
      <trkpt lat="59.4869974" lon="17.8040429">
        <ele>7.34717</ele>
        <time>2011-08-30T21:08:37Z</time>
      </trkpt>
      <trkpt lat="59.4868334" lon="17.8039963">
        <ele>9.75061</ele>
        <time>2011-08-30T21:08:43Z</time>
      </trkpt>
      <trkpt lat="59.4866924" lon="17.803967">
        <ele>11.1925</ele>
        <time>2011-08-30T21:08:48Z</time>
      </trkpt>
      <trkpt lat="59.4865577" lon="17.8039218">
        <ele>13.5958</ele>
        <time>2011-08-30T21:08:53Z</time>
      </trkpt>
      <trkpt lat="59.4864069" lon="17.8038585">
        <ele>15.999</ele>
        <time>2011-08-30T21:08:59Z</time>
      </trkpt>
      <trkpt lat="59.4862599" lon="17.8038173">
        <ele>19.3638</ele>
        <time>2011-08-30T21:09:04Z</time>
      </trkpt>
      <trkpt lat="59.4861268" lon="17.8037769">
        <ele>21.2864</ele>
        <time>2011-08-30T21:09:09Z</time>
      </trkpt>
      <trkpt lat="59.4859999" lon="17.8037191">
        <ele>21.767</ele>
        <time>2011-08-30T21:09:14Z</time>
      </trkpt>
      <trkpt lat="59.4858812" lon="17.8036668">
        <ele>22.2476</ele>
        <time>2011-08-30T21:09:19Z</time>
      </trkpt>
      <trkpt lat="59.4857898" lon="17.8036146">
        <ele>22.2476</ele>
        <time>2011-08-30T21:09:23Z</time>
      </trkpt>
      <trkpt lat="59.4856672" lon="17.8035786">
        <ele>20.8057</ele>
        <time>2011-08-30T21:09:28Z</time>
      </trkpt>
      <trkpt lat="59.4854533" lon="17.8035051">
        <ele>23.209</ele>
        <time>2011-08-30T21:09:36Z</time>
      </trkpt>
      <trkpt lat="59.4853311" lon="17.8034099">
        <ele>22.2476</ele>
        <time>2011-08-30T21:09:41Z</time>
      </trkpt>
      <trkpt lat="59.4851892" lon="17.8032736">
        <ele>21.2864</ele>
        <time>2011-08-30T21:09:47Z</time>
      </trkpt>
      <trkpt lat="59.4850673" lon="17.8030844">
        <ele>19.3638</ele>
        <time>2011-08-30T21:09:53Z</time>
      </trkpt>
      <trkpt lat="59.4849484" lon="17.8028074">
        <ele>16.4797</ele>
        <time>2011-08-30T21:10:00Z</time>
      </trkpt>
      <trkpt lat="59.484854" lon="17.8025545">
        <ele>16.4797</ele>
        <time>2011-08-30T21:10:06Z</time>
      </trkpt>
      <trkpt lat="59.4847484" lon="17.8022602">
        <ele>16.9604</ele>
        <time>2011-08-30T21:10:13Z</time>
      </trkpt>
      <trkpt lat="59.4846862" lon="17.8019857">
        <ele>17.4412</ele>
        <time>2011-08-30T21:10:19Z</time>
      </trkpt>
      <trkpt lat="59.4846121" lon="17.8017301">
        <ele>19.8444</ele>
        <time>2011-08-30T21:10:25Z</time>
      </trkpt>
      <trkpt lat="59.4844821" lon="17.801565">
        <ele>20.8057</ele>
        <time>2011-08-30T21:10:31Z</time>
      </trkpt>
      <trkpt lat="59.4843909" lon="17.8014989">
        <ele>21.2864</ele>
        <time>2011-08-30T21:10:35Z</time>
      </trkpt>
      <trkpt lat="59.4842541" lon="17.8014114">
        <ele>20.8057</ele>
        <time>2011-08-30T21:10:41Z</time>
      </trkpt>
      <trkpt lat="59.4841324" lon="17.8013522">
        <ele>19.8444</ele>
        <time>2011-08-30T21:10:46Z</time>
      </trkpt>
      <trkpt lat="59.4840054" lon="17.8013397">
        <ele>18.8831</ele>
        <time>2011-08-30T21:10:51Z</time>
      </trkpt>
      <trkpt lat="59.4838738" lon="17.8013066">
        <ele>18.8831</ele>
        <time>2011-08-30T21:10:56Z</time>
      </trkpt>
      <trkpt lat="59.4837505" lon="17.8012498">
        <ele>19.8444</ele>
        <time>2011-08-30T21:11:01Z</time>
      </trkpt>
      <trkpt lat="59.4836383" lon="17.8011436">
        <ele>20.325</ele>
        <time>2011-08-30T21:11:06Z</time>
      </trkpt>
      <trkpt lat="59.483513" lon="17.8010139">
        <ele>19.8444</ele>
        <time>2011-08-30T21:11:12Z</time>
      </trkpt>
      <trkpt lat="59.4833575" lon="17.8008683">
        <ele>18.8831</ele>
        <time>2011-08-30T21:11:19Z</time>
      </trkpt>
      <trkpt lat="59.4832552" lon="17.8007296">
        <ele>19.8444</ele>
        <time>2011-08-30T21:11:24Z</time>
      </trkpt>
      <trkpt lat="59.483144" lon="17.8005732">
        <ele>20.8057</ele>
        <time>2011-08-30T21:11:30Z</time>
      </trkpt>
      <trkpt lat="59.4830202" lon="17.800449">
        <ele>22.2476</ele>
        <time>2011-08-30T21:11:36Z</time>
      </trkpt>
      <trkpt lat="59.4828822" lon="17.8002926">
        <ele>23.6896</ele>
        <time>2011-08-30T21:11:43Z</time>
      </trkpt>
      <trkpt lat="59.48274" lon="17.8001557">
        <ele>22.7283</ele>
        <time>2011-08-30T21:11:50Z</time>
      </trkpt>
      <trkpt lat="59.4825889" lon="17.8000201">
        <ele>21.2864</ele>
        <time>2011-08-30T21:11:57Z</time>
      </trkpt>
      <trkpt lat="59.4824497" lon="17.799931">
        <ele>20.8057</ele>
        <time>2011-08-30T21:12:03Z</time>
      </trkpt>
      <trkpt lat="59.4823399" lon="17.7998893">
        <ele>21.767</ele>
        <time>2011-08-30T21:12:08Z</time>
      </trkpt>
      <trkpt lat="59.4822503" lon="17.7998423">
        <ele>21.2864</ele>
        <time>2011-08-30T21:12:12Z</time>
      </trkpt>
      <trkpt lat="59.4821111" lon="17.7997723">
        <ele>21.2864</ele>
        <time>2011-08-30T21:12:18Z</time>
      </trkpt>
      <trkpt lat="59.4819557" lon="17.7997113">
        <ele>22.2476</ele>
        <time>2011-08-30T21:12:24Z</time>
      </trkpt>
      <trkpt lat="59.4818309" lon="17.7996686">
        <ele>21.767</ele>
        <time>2011-08-30T21:12:29Z</time>
      </trkpt>
      <trkpt lat="59.481668" lon="17.7997054">
        <ele>23.209</ele>
        <time>2011-08-30T21:12:35Z</time>
      </trkpt>
      <trkpt lat="59.4815525" lon="17.7998132">
        <ele>24.651</ele>
        <time>2011-08-30T21:12:40Z</time>
      </trkpt>
      <trkpt lat="59.4814144" lon="17.8000086">
        <ele>27.0543</ele>
        <time>2011-08-30T21:12:46Z</time>
      </trkpt>
      <trkpt lat="59.4813066" lon="17.8001454">
        <ele>28.0155</ele>
        <time>2011-08-30T21:12:51Z</time>
      </trkpt>
      <trkpt lat="59.4811578" lon="17.800256">
        <ele>26.0929</ele>
        <time>2011-08-30T21:12:57Z</time>
      </trkpt>
      <trkpt lat="59.4810977" lon="17.8002938">
        <ele>26.5736</ele>
        <time>2011-08-30T21:12:59Z</time>
      </trkpt>
      <trkpt lat="59.4810222" lon="17.8003386">
        <ele>26.5736</ele>
        <time>2011-08-30T21:13:02Z</time>
      </trkpt>
      <trkpt lat="59.4809202" lon="17.8003629">
        <ele>25.1317</ele>
        <time>2011-08-30T21:13:06Z</time>
      </trkpt>
      <trkpt lat="59.4808058" lon="17.8003713">
        <ele>24.651</ele>
        <time>2011-08-30T21:13:11Z</time>
      </trkpt>
      <trkpt lat="59.4806996" lon="17.8004009">
        <ele>23.6896</ele>
        <time>2011-08-30T21:13:16Z</time>
      </trkpt>
      <trkpt lat="59.4806057" lon="17.8004433">
        <ele>23.6896</ele>
        <time>2011-08-30T21:13:20Z</time>
      </trkpt>
      <trkpt lat="59.4804514" lon="17.8004065">
        <ele>27.0543</ele>
        <time>2011-08-30T21:13:27Z</time>
      </trkpt>
      <trkpt lat="59.4802375" lon="17.8003806">
        <ele>29.4575</ele>
        <time>2011-08-30T21:13:36Z</time>
      </trkpt>
      <trkpt lat="59.4801096" lon="17.8003696">
        <ele>29.4575</ele>
        <time>2011-08-30T21:13:41Z</time>
      </trkpt>
      <trkpt lat="59.4799656" lon="17.8003221">
        <ele>29.9381</ele>
        <time>2011-08-30T21:13:47Z</time>
      </trkpt>
      <trkpt lat="59.4798107" lon="17.8002661">
        <ele>28.9769</ele>
        <time>2011-08-30T21:13:53Z</time>
      </trkpt>
      <trkpt lat="59.4796863" lon="17.8001885">
        <ele>27.5349</ele>
        <time>2011-08-30T21:13:58Z</time>
      </trkpt>
      <trkpt lat="59.4795552" lon="17.800082">
        <ele>27.5349</ele>
        <time>2011-08-30T21:14:03Z</time>
      </trkpt>
      <trkpt lat="59.4794574" lon="17.8000118">
        <ele>28.4962</ele>
        <time>2011-08-30T21:14:07Z</time>
      </trkpt>
      <trkpt lat="59.4793247" lon="17.7999397">
        <ele>29.4575</ele>
        <time>2011-08-30T21:14:12Z</time>
      </trkpt>
      <trkpt lat="59.4791871" lon="17.7998634">
        <ele>29.4575</ele>
        <time>2011-08-30T21:14:17Z</time>
      </trkpt>
      <trkpt lat="59.4790777" lon="17.7997989">
        <ele>29.4575</ele>
        <time>2011-08-30T21:14:21Z</time>
      </trkpt>
      <trkpt lat="59.4789136" lon="17.7997171">
        <ele>30.4188</ele>
        <time>2011-08-30T21:14:27Z</time>
      </trkpt>
      <trkpt lat="59.4787867" lon="17.7996196">
        <ele>29.4575</ele>
        <time>2011-08-30T21:14:32Z</time>
      </trkpt>
      <trkpt lat="59.478655" lon="17.7994984">
        <ele>27.0543</ele>
        <time>2011-08-30T21:14:37Z</time>
      </trkpt>
      <trkpt lat="59.478556" lon="17.7993943">
        <ele>27.0543</ele>
        <time>2011-08-30T21:14:41Z</time>
      </trkpt>
      <trkpt lat="59.4784199" lon="17.7992184">
        <ele>26.0929</ele>
        <time>2011-08-30T21:14:47Z</time>
      </trkpt>
      <trkpt lat="59.4782806" lon="17.7990577">
        <ele>27.0543</ele>
        <time>2011-08-30T21:14:52Z</time>
      </trkpt>
      <trkpt lat="59.4781358" lon="17.7987093">
        <ele>27.0543</ele>
        <time>2011-08-30T21:14:59Z</time>
      </trkpt>
      <trkpt lat="59.4780556" lon="17.7985093">
        <ele>26.0929</ele>
        <time>2011-08-30T21:15:03Z</time>
      </trkpt>
      <trkpt lat="59.4779623" lon="17.7982614">
        <ele>25.1317</ele>
        <time>2011-08-30T21:15:08Z</time>
      </trkpt>
      <trkpt lat="59.4778536" lon="17.7979288">
        <ele>24.1703</ele>
        <time>2011-08-30T21:15:14Z</time>
      </trkpt>
      <trkpt lat="59.4777193" lon="17.7976003">
        <ele>24.1703</ele>
        <time>2011-08-30T21:15:21Z</time>
      </trkpt>
      <trkpt lat="59.4775801" lon="17.7973813">
        <ele>26.0929</ele>
        <time>2011-08-30T21:15:27Z</time>
      </trkpt>
      <trkpt lat="59.477476" lon="17.7972299">
        <ele>26.5736</ele>
        <time>2011-08-30T21:15:32Z</time>
      </trkpt>
      <trkpt lat="59.4773448" lon="17.7971088">
        <ele>26.5736</ele>
        <time>2011-08-30T21:15:37Z</time>
      </trkpt>
      <trkpt lat="59.4771786" lon="17.7970472">
        <ele>26.0929</ele>
        <time>2011-08-30T21:15:43Z</time>
      </trkpt>
      <trkpt lat="59.4770479" lon="17.7970316">
        <ele>24.1703</ele>
        <time>2011-08-30T21:15:48Z</time>
      </trkpt>
      <trkpt lat="59.4769444" lon="17.7970333">
        <ele>22.7283</ele>
        <time>2011-08-30T21:15:52Z</time>
      </trkpt>
      <trkpt lat="59.4767902" lon="17.7970789">
        <ele>21.2864</ele>
        <time>2011-08-30T21:15:58Z</time>
      </trkpt>
      <trkpt lat="59.4767404" lon="17.797107">
        <ele>22.7283</ele>
        <time>2011-08-30T21:16:00Z</time>
      </trkpt>
      <trkpt lat="59.4766082" lon="17.7971671">
        <ele>17.9218</ele>
        <time>2011-08-30T21:16:06Z</time>
      </trkpt>
      <trkpt lat="59.4764389" lon="17.7970817">
        <ele>11.1925</ele>
        <time>2011-08-30T21:16:11Z</time>
      </trkpt>
      <trkpt lat="59.4762975" lon="17.796959">
        <ele>11.6732</ele>
        <time>2011-08-30T21:16:16Z</time>
      </trkpt>
      <trkpt lat="59.4761359" lon="17.7968337">
        <ele>12.1538</ele>
        <time>2011-08-30T21:16:22Z</time>
      </trkpt>
      <trkpt lat="59.4759663" lon="17.7966975">
        <ele>15.0377</ele>
        <time>2011-08-30T21:16:28Z</time>
      </trkpt>
      <trkpt lat="59.4758127" lon="17.7965446">
        <ele>17.4412</ele>
        <time>2011-08-30T21:16:34Z</time>
      </trkpt>
      <trkpt lat="59.4756553" lon="17.7962918">
        <ele>19.3638</ele>
        <time>2011-08-30T21:16:41Z</time>
      </trkpt>
      <trkpt lat="59.475532" lon="17.7961054">
        <ele>20.325</ele>
        <time>2011-08-30T21:16:46Z</time>
      </trkpt>
      <trkpt lat="59.4753976" lon="17.7958745">
        <ele>20.8057</ele>
        <time>2011-08-30T21:16:52Z</time>
      </trkpt>
      <trkpt lat="59.4752982" lon="17.7956567">
        <ele>20.325</ele>
        <time>2011-08-30T21:16:57Z</time>
      </trkpt>
      <trkpt lat="59.4751812" lon="17.7954176">
        <ele>19.3638</ele>
        <time>2011-08-30T21:17:02Z</time>
      </trkpt>
      <trkpt lat="59.4750501" lon="17.795187">
        <ele>18.8831</ele>
        <time>2011-08-30T21:17:07Z</time>
      </trkpt>
      <trkpt lat="59.4748819" lon="17.7949716">
        <ele>17.4412</ele>
        <time>2011-08-30T21:17:13Z</time>
      </trkpt>
      <trkpt lat="59.4746627" lon="17.7948109">
        <ele>14.557</ele>
        <time>2011-08-30T21:17:20Z</time>
      </trkpt>
      <trkpt lat="59.4744855" lon="17.7945628">
        <ele>13.1151</ele>
        <time>2011-08-30T21:17:27Z</time>
      </trkpt>
      <trkpt lat="59.4743601" lon="17.794359">
        <ele>11.6732</ele>
        <time>2011-08-30T21:17:32Z</time>
      </trkpt>
      <trkpt lat="59.4742004" lon="17.7941827">
        <ele>10.7118</ele>
        <time>2011-08-30T21:17:38Z</time>
      </trkpt>
      <trkpt lat="59.474032" lon="17.7940976">
        <ele>9.75061</ele>
        <time>2011-08-30T21:17:44Z</time>
      </trkpt>
      <trkpt lat="59.4738514" lon="17.7940075">
        <ele>9.2699</ele>
        <time>2011-08-30T21:17:50Z</time>
      </trkpt>
      <trkpt lat="59.4736804" lon="17.7939236">
        <ele>8.78918</ele>
        <time>2011-08-30T21:17:56Z</time>
      </trkpt>
      <trkpt lat="59.4735154" lon="17.7938874">
        <ele>9.2699</ele>
        <time>2011-08-30T21:18:02Z</time>
      </trkpt>
      <trkpt lat="59.4733779" lon="17.7938713">
        <ele>8.30859</ele>
        <time>2011-08-30T21:18:07Z</time>
      </trkpt>
      <trkpt lat="59.4732136" lon="17.7938801">
        <ele>8.30859</ele>
        <time>2011-08-30T21:18:13Z</time>
      </trkpt>
      <trkpt lat="59.4731857" lon="17.7938811">
        <ele>8.30859</ele>
        <time>2011-08-30T21:18:14Z</time>
      </trkpt>
      <trkpt lat="59.4730331" lon="17.7938298">
        <ele>7.82788</ele>
        <time>2011-08-30T21:18:20Z</time>
      </trkpt>
      <trkpt lat="59.4728489" lon="17.7938153">
        <ele>6.38586</ele>
        <time>2011-08-30T21:18:27Z</time>
      </trkpt>
      <trkpt lat="59.4726704" lon="17.7938816">
        <ele>6.38586</ele>
        <time>2011-08-30T21:18:34Z</time>
      </trkpt>
      <trkpt lat="59.4725674" lon="17.7939606">
        <ele>5.42456</ele>
        <time>2011-08-30T21:18:38Z</time>
      </trkpt>
      <trkpt lat="59.4724832" lon="17.7940779">
        <ele>5.90527</ele>
        <time>2011-08-30T21:18:42Z</time>
      </trkpt>
      <trkpt lat="59.4724065" lon="17.7942037">
        <ele>5.42456</ele>
        <time>2011-08-30T21:18:46Z</time>
      </trkpt>
      <trkpt lat="59.472283" lon="17.7944333">
        <ele>5.90527</ele>
        <time>2011-08-30T21:18:52Z</time>
      </trkpt>
      <trkpt lat="59.4721084" lon="17.7945979">
        <ele>6.38586</ele>
        <time>2011-08-30T21:18:59Z</time>
      </trkpt>
      <trkpt lat="59.4719628" lon="17.7947207">
        <ele>5.42456</ele>
        <time>2011-08-30T21:19:05Z</time>
      </trkpt>
      <trkpt lat="59.4718343" lon="17.7948226">
        <ele>4.46326</ele>
        <time>2011-08-30T21:19:10Z</time>
      </trkpt>
      <trkpt lat="59.4716933" lon="17.7949414">
        <ele>4.94385</ele>
        <time>2011-08-30T21:19:16Z</time>
      </trkpt>
      <trkpt lat="59.4715775" lon="17.7950678">
        <ele>4.94385</ele>
        <time>2011-08-30T21:19:21Z</time>
      </trkpt>
      <trkpt lat="59.471457" lon="17.7951785">
        <ele>4.94385</ele>
        <time>2011-08-30T21:19:26Z</time>
      </trkpt>
      <trkpt lat="59.4713459" lon="17.7952943">
        <ele>5.42456</ele>
        <time>2011-08-30T21:19:31Z</time>
      </trkpt>
      <trkpt lat="59.4711825" lon="17.7954657">
        <ele>4.94385</ele>
        <time>2011-08-30T21:19:38Z</time>
      </trkpt>
      <trkpt lat="59.4710361" lon="17.7956128">
        <ele>5.42456</ele>
        <time>2011-08-30T21:19:44Z</time>
      </trkpt>
      <trkpt lat="59.4708651" lon="17.7957749">
        <ele>5.90527</ele>
        <time>2011-08-30T21:19:51Z</time>
      </trkpt>
      <trkpt lat="59.4707355" lon="17.7958915">
        <ele>5.90527</ele>
        <time>2011-08-30T21:19:56Z</time>
      </trkpt>
      <trkpt lat="59.4706235" lon="17.7959959">
        <ele>6.86646</ele>
        <time>2011-08-30T21:20:01Z</time>
      </trkpt>
      <trkpt lat="59.4704808" lon="17.7961251">
        <ele>6.86646</ele>
        <time>2011-08-30T21:20:07Z</time>
      </trkpt>
      <trkpt lat="59.4703466" lon="17.7962474">
        <ele>6.86646</ele>
        <time>2011-08-30T21:20:13Z</time>
      </trkpt>
      <trkpt lat="59.4702036" lon="17.7963727">
        <ele>6.86646</ele>
        <time>2011-08-30T21:20:19Z</time>
      </trkpt>
      <trkpt lat="59.4700475" lon="17.7965353">
        <ele>6.86646</ele>
        <time>2011-08-30T21:20:26Z</time>
      </trkpt>
      <trkpt lat="59.4699281" lon="17.7966759">
        <ele>7.34717</ele>
        <time>2011-08-30T21:20:32Z</time>
      </trkpt>
      <trkpt lat="59.4697482" lon="17.7968587">
        <ele>5.90527</ele>
        <time>2011-08-30T21:20:40Z</time>
      </trkpt>
      <trkpt lat="59.469579" lon="17.7969858">
        <ele>5.42456</ele>
        <time>2011-08-30T21:20:47Z</time>
      </trkpt>
      <trkpt lat="59.4694435" lon="17.7971317">
        <ele>5.42456</ele>
        <time>2011-08-30T21:20:53Z</time>
      </trkpt>
      <trkpt lat="59.4693189" lon="17.7973304">
        <ele>5.90527</ele>
        <time>2011-08-30T21:20:59Z</time>
      </trkpt>
      <trkpt lat="59.4691394" lon="17.7976004">
        <ele>6.38586</ele>
        <time>2011-08-30T21:21:07Z</time>
      </trkpt>
      <trkpt lat="59.4690324" lon="17.7978053">
        <ele>7.34717</ele>
        <time>2011-08-30T21:21:12Z</time>
      </trkpt>
      <trkpt lat="59.468935" lon="17.7980628">
        <ele>7.82788</ele>
        <time>2011-08-30T21:21:18Z</time>
      </trkpt>
      <trkpt lat="59.4688333" lon="17.7983132">
        <ele>7.82788</ele>
        <time>2011-08-30T21:21:24Z</time>
      </trkpt>
      <trkpt lat="59.4687366" lon="17.7985551">
        <ele>8.30859</ele>
        <time>2011-08-30T21:21:30Z</time>
      </trkpt>
      <trkpt lat="59.4686251" lon="17.7988525">
        <ele>7.34717</ele>
        <time>2011-08-30T21:21:37Z</time>
      </trkpt>
      <trkpt lat="59.468487" lon="17.7991565">
        <ele>6.86646</ele>
        <time>2011-08-30T21:21:45Z</time>
      </trkpt>
      <trkpt lat="59.4683692" lon="17.7994065">
        <ele>6.86646</ele>
        <time>2011-08-30T21:21:52Z</time>
      </trkpt>
      <trkpt lat="59.4682922" lon="17.7995698">
        <ele>6.38586</ele>
        <time>2011-08-30T21:21:57Z</time>
      </trkpt>
      <trkpt lat="59.4681793" lon="17.7997857">
        <ele>7.82788</ele>
        <time>2011-08-30T21:22:04Z</time>
      </trkpt>
      <trkpt lat="59.4680622" lon="17.7999844">
        <ele>9.75061</ele>
        <time>2011-08-30T21:22:11Z</time>
      </trkpt>
      <trkpt lat="59.4679421" lon="17.8001724">
        <ele>12.6344</ele>
        <time>2011-08-30T21:22:17Z</time>
      </trkpt>
      <trkpt lat="59.4678455" lon="17.800325">
        <ele>12.1538</ele>
        <time>2011-08-30T21:22:22Z</time>
      </trkpt>
      <trkpt lat="59.4677105" lon="17.8004707">
        <ele>11.1925</ele>
        <time>2011-08-30T21:22:28Z</time>
      </trkpt>
      <trkpt lat="59.467584" lon="17.8005731">
        <ele>9.75061</ele>
        <time>2011-08-30T21:22:33Z</time>
      </trkpt>
      <trkpt lat="59.4673981" lon="17.8006655">
        <ele>10.2312</ele>
        <time>2011-08-30T21:22:40Z</time>
      </trkpt>
      <trkpt lat="59.467253" lon="17.8007375">
        <ele>8.30859</ele>
        <time>2011-08-30T21:22:45Z</time>
      </trkpt>
      <trkpt lat="59.4670954" lon="17.8008058">
        <ele>7.34717</ele>
        <time>2011-08-30T21:22:51Z</time>
      </trkpt>
      <trkpt lat="59.4669024" lon="17.8008534">
        <ele>7.34717</ele>
        <time>2011-08-30T21:22:59Z</time>
      </trkpt>
      <trkpt lat="59.4667837" lon="17.8008802">
        <ele>7.34717</ele>
        <time>2011-08-30T21:23:04Z</time>
      </trkpt>
      <trkpt lat="59.4666644" lon="17.8009028">
        <ele>6.86646</ele>
        <time>2011-08-30T21:23:09Z</time>
      </trkpt>
      <trkpt lat="59.4665308" lon="17.8009614">
        <ele>5.90527</ele>
        <time>2011-08-30T21:23:14Z</time>
      </trkpt>
      <trkpt lat="59.4664159" lon="17.8010058">
        <ele>6.38586</ele>
        <time>2011-08-30T21:23:18Z</time>
      </trkpt>
      <trkpt lat="59.4661966" lon="17.8010229">
        <ele>4.94385</ele>
        <time>2011-08-30T21:23:26Z</time>
      </trkpt>
      <trkpt lat="59.4660464" lon="17.8009912">
        <ele>4.94385</ele>
        <time>2011-08-30T21:23:32Z</time>
      </trkpt>
      <trkpt lat="59.4658954" lon="17.8009488">
        <ele>3.98267</ele>
        <time>2011-08-30T21:23:38Z</time>
      </trkpt>
      <trkpt lat="59.4657392" lon="17.800959">
        <ele>3.50195</ele>
        <time>2011-08-30T21:23:44Z</time>
      </trkpt>
      <trkpt lat="59.4655901" lon="17.8009929">
        <ele>4.94385</ele>
        <time>2011-08-30T21:23:50Z</time>
      </trkpt>
      <trkpt lat="59.4654442" lon="17.8010187">
        <ele>4.46326</ele>
        <time>2011-08-30T21:23:55Z</time>
      </trkpt>
      <trkpt lat="59.4654144" lon="17.801014">
        <ele>4.46326</ele>
        <time>2011-08-30T21:23:56Z</time>
      </trkpt>
      <trkpt lat="59.4653012" lon="17.8009612">
        <ele>4.46326</ele>
        <time>2011-08-30T21:24:00Z</time>
      </trkpt>
      <trkpt lat="59.4651194" lon="17.8009144">
        <ele>4.46326</ele>
        <time>2011-08-30T21:24:07Z</time>
      </trkpt>
      <trkpt lat="59.4649659" lon="17.8008633">
        <ele>3.98267</ele>
        <time>2011-08-30T21:24:13Z</time>
      </trkpt>
      <trkpt lat="59.4647972" lon="17.8007913">
        <ele>3.50195</ele>
        <time>2011-08-30T21:24:20Z</time>
      </trkpt>
      <trkpt lat="59.4646844" lon="17.8007173">
        <ele>3.02124</ele>
        <time>2011-08-30T21:24:25Z</time>
      </trkpt>
      <trkpt lat="59.4645692" lon="17.8006673">
        <ele>3.98267</ele>
        <time>2011-08-30T21:24:30Z</time>
      </trkpt>
      <trkpt lat="59.4643914" lon="17.8005862">
        <ele>6.86646</ele>
        <time>2011-08-30T21:24:37Z</time>
      </trkpt>
      <trkpt lat="59.4642147" lon="17.8004411">
        <ele>7.34717</ele>
        <time>2011-08-30T21:24:44Z</time>
      </trkpt>
      <trkpt lat="59.4640746" lon="17.8003734">
        <ele>7.82788</ele>
        <time>2011-08-30T21:24:49Z</time>
      </trkpt>
      <trkpt lat="59.4638763" lon="17.8003141">
        <ele>8.78918</ele>
        <time>2011-08-30T21:24:56Z</time>
      </trkpt>
      <trkpt lat="59.463734" lon="17.8002551">
        <ele>10.2312</ele>
        <time>2011-08-30T21:25:01Z</time>
      </trkpt>
      <trkpt lat="59.463602" lon="17.8001955">
        <ele>9.2699</ele>
        <time>2011-08-30T21:25:06Z</time>
      </trkpt>
      <trkpt lat="59.463458" lon="17.8001366">
        <ele>8.30859</ele>
        <time>2011-08-30T21:25:11Z</time>
      </trkpt>
      <trkpt lat="59.4632828" lon="17.8000464">
        <ele>5.42456</ele>
        <time>2011-08-30T21:25:17Z</time>
      </trkpt>
      <trkpt lat="59.463153" lon="17.7999862">
        <ele>3.98267</ele>
        <time>2011-08-30T21:25:22Z</time>
      </trkpt>
      <trkpt lat="59.4630245" lon="17.7999279">
        <ele>3.98267</ele>
        <time>2011-08-30T21:25:27Z</time>
      </trkpt>
      <trkpt lat="59.4629064" lon="17.7998511">
        <ele>2.06006</ele>
        <time>2011-08-30T21:25:32Z</time>
      </trkpt>
      <trkpt lat="59.4627845" lon="17.7997769">
        <ele>2.54065</ele>
        <time>2011-08-30T21:25:37Z</time>
      </trkpt>
      <trkpt lat="59.4626495" lon="17.7996955">
        <ele>3.02124</ele>
        <time>2011-08-30T21:25:42Z</time>
      </trkpt>
      <trkpt lat="59.462473" lon="17.799618">
        <ele>3.98267</ele>
        <time>2011-08-30T21:25:49Z</time>
      </trkpt>
      <trkpt lat="59.4623075" lon="17.7995319">
        <ele>5.42456</ele>
        <time>2011-08-30T21:25:56Z</time>
      </trkpt>
      <trkpt lat="59.4621523" lon="17.7994827">
        <ele>7.82788</ele>
        <time>2011-08-30T21:26:02Z</time>
      </trkpt>
      <trkpt lat="59.4620116" lon="17.7994327">
        <ele>7.34717</ele>
        <time>2011-08-30T21:26:07Z</time>
      </trkpt>
      <trkpt lat="59.461869" lon="17.7994233">
        <ele>6.86646</ele>
        <time>2011-08-30T21:26:12Z</time>
      </trkpt>
      <trkpt lat="59.4616907" lon="17.7994306">
        <ele>7.34717</ele>
        <time>2011-08-30T21:26:19Z</time>
      </trkpt>
      <trkpt lat="59.4615622" lon="17.7994372">
        <ele>7.34717</ele>
        <time>2011-08-30T21:26:24Z</time>
      </trkpt>
      <trkpt lat="59.461383" lon="17.7994538">
        <ele>5.42456</ele>
        <time>2011-08-30T21:26:31Z</time>
      </trkpt>
      <trkpt lat="59.4612296" lon="17.7994534">
        <ele>5.90527</ele>
        <time>2011-08-30T21:26:37Z</time>
      </trkpt>
      <trkpt lat="59.4610824" lon="17.7994637">
        <ele>3.98267</ele>
        <time>2011-08-30T21:26:43Z</time>
      </trkpt>
      <trkpt lat="59.4609523" lon="17.7994508">
        <ele>3.98267</ele>
        <time>2011-08-30T21:26:48Z</time>
      </trkpt>
      <trkpt lat="59.4607954" lon="17.7994808">
        <ele>3.98267</ele>
        <time>2011-08-30T21:26:54Z</time>
      </trkpt>
      <trkpt lat="59.4606446" lon="17.7995541">
        <ele>3.50195</ele>
        <time>2011-08-30T21:27:00Z</time>
      </trkpt>
      <trkpt lat="59.460512" lon="17.7996465">
        <ele>2.06006</ele>
        <time>2011-08-30T21:27:05Z</time>
      </trkpt>
      <trkpt lat="59.4604019" lon="17.7997403">
        <ele>0.137451</ele>
        <time>2011-08-30T21:27:10Z</time>
      </trkpt>
      <trkpt lat="59.460261" lon="17.7998836">
        <ele>0</ele>
        <time>2011-08-30T21:27:16Z</time>
      </trkpt>
      <trkpt lat="59.460147" lon="17.799983">
        <ele>0</ele>
        <time>2011-08-30T21:27:21Z</time>
      </trkpt>
      <trkpt lat="59.4600216" lon="17.8001039">
        <ele>3.50195</ele>
        <time>2011-08-30T21:27:26Z</time>
      </trkpt>
      <trkpt lat="59.4598491" lon="17.8002541">
        <ele>5.42456</ele>
        <time>2011-08-30T21:27:33Z</time>
      </trkpt>
      <trkpt lat="59.4597301" lon="17.800365">
        <ele>4.46326</ele>
        <time>2011-08-30T21:27:38Z</time>
      </trkpt>
      <trkpt lat="59.4595823" lon="17.8004552">
        <ele>4.46326</ele>
        <time>2011-08-30T21:27:44Z</time>
      </trkpt>
      <trkpt lat="59.4594238" lon="17.8005365">
        <ele>4.94385</ele>
        <time>2011-08-30T21:27:50Z</time>
      </trkpt>
      <trkpt lat="59.4592558" lon="17.8006155">
        <ele>8.30859</ele>
        <time>2011-08-30T21:27:56Z</time>
      </trkpt>
      <trkpt lat="59.4591022" lon="17.8006597">
        <ele>7.34717</ele>
        <time>2011-08-30T21:28:02Z</time>
      </trkpt>
      <trkpt lat="59.458909" lon="17.8006675">
        <ele>6.86646</ele>
        <time>2011-08-30T21:28:09Z</time>
      </trkpt>
      <trkpt lat="59.45877" lon="17.8007007">
        <ele>7.34717</ele>
        <time>2011-08-30T21:28:14Z</time>
      </trkpt>
      <trkpt lat="59.45861" lon="17.8007215">
        <ele>6.38586</ele>
        <time>2011-08-30T21:28:20Z</time>
      </trkpt>
      <trkpt lat="59.4584517" lon="17.8007498">
        <ele>6.38586</ele>
        <time>2011-08-30T21:28:26Z</time>
      </trkpt>
      <trkpt lat="59.4583048" lon="17.8007851">
        <ele>4.94385</ele>
        <time>2011-08-30T21:28:32Z</time>
      </trkpt>
      <trkpt lat="59.4581371" lon="17.8008447">
        <ele>5.90527</ele>
        <time>2011-08-30T21:28:39Z</time>
      </trkpt>
      <trkpt lat="59.4579662" lon="17.8009074">
        <ele>6.86646</ele>
        <time>2011-08-30T21:28:46Z</time>
      </trkpt>
      <trkpt lat="59.4578475" lon="17.8009484">
        <ele>6.86646</ele>
        <time>2011-08-30T21:28:51Z</time>
      </trkpt>
      <trkpt lat="59.4577233" lon="17.800995">
        <ele>7.82788</ele>
        <time>2011-08-30T21:28:56Z</time>
      </trkpt>
      <trkpt lat="59.4575904" lon="17.8010234">
        <ele>8.30859</ele>
        <time>2011-08-30T21:29:01Z</time>
      </trkpt>
      <trkpt lat="59.457382" lon="17.8010191">
        <ele>10.7118</ele>
        <time>2011-08-30T21:29:09Z</time>
      </trkpt>
      <trkpt lat="59.4572672" lon="17.8010555">
        <ele>11.6732</ele>
        <time>2011-08-30T21:29:14Z</time>
      </trkpt>
      <trkpt lat="59.4571238" lon="17.8011092">
        <ele>11.6732</ele>
        <time>2011-08-30T21:29:20Z</time>
      </trkpt>
      <trkpt lat="59.4569763" lon="17.8011605">
        <ele>12.6344</ele>
        <time>2011-08-30T21:29:26Z</time>
      </trkpt>
      <trkpt lat="59.4567738" lon="17.8012426">
        <ele>14.557</ele>
        <time>2011-08-30T21:29:34Z</time>
      </trkpt>
      <trkpt lat="59.4566737" lon="17.8013247">
        <ele>15.0377</ele>
        <time>2011-08-30T21:29:38Z</time>
      </trkpt>
      <trkpt lat="59.4566459" lon="17.801348">
        <ele>15.5184</ele>
        <time>2011-08-30T21:29:39Z</time>
      </trkpt>
      <trkpt lat="59.4564862" lon="17.8015461">
        <ele>14.557</ele>
        <time>2011-08-30T21:29:46Z</time>
      </trkpt>
      <trkpt lat="59.4563293" lon="17.8017614">
        <ele>15.0377</ele>
        <time>2011-08-30T21:29:52Z</time>
      </trkpt>
      <trkpt lat="59.4561619" lon="17.8019502">
        <ele>14.0764</ele>
        <time>2011-08-30T21:29:58Z</time>
      </trkpt>
      <trkpt lat="59.4559857" lon="17.8021066">
        <ele>13.5958</ele>
        <time>2011-08-30T21:30:04Z</time>
      </trkpt>
      <trkpt lat="59.4558689" lon="17.8022002">
        <ele>12.6344</ele>
        <time>2011-08-30T21:30:08Z</time>
      </trkpt>
      <trkpt lat="59.4556924" lon="17.8023353">
        <ele>12.6344</ele>
        <time>2011-08-30T21:30:14Z</time>
      </trkpt>
      <trkpt lat="59.4555417" lon="17.8024291">
        <ele>12.1538</ele>
        <time>2011-08-30T21:30:19Z</time>
      </trkpt>
      <trkpt lat="59.455369" lon="17.8025317">
        <ele>12.1538</ele>
        <time>2011-08-30T21:30:25Z</time>
      </trkpt>
      <trkpt lat="59.4551882" lon="17.8026505">
        <ele>12.6344</ele>
        <time>2011-08-30T21:30:31Z</time>
      </trkpt>
      <trkpt lat="59.4550394" lon="17.8027613">
        <ele>13.1151</ele>
        <time>2011-08-30T21:30:36Z</time>
      </trkpt>
      <trkpt lat="59.4548882" lon="17.8029186">
        <ele>14.0764</ele>
        <time>2011-08-30T21:30:41Z</time>
      </trkpt>
      <trkpt lat="59.454868" lon="17.8029627">
        <ele>14.557</ele>
        <time>2011-08-30T21:30:42Z</time>
      </trkpt>
      <trkpt lat="59.454901" lon="17.8031887">
        <ele>15.0377</ele>
        <time>2011-08-30T21:30:46Z</time>
      </trkpt>
      <trkpt lat="59.4549798" lon="17.8034616">
        <ele>13.5958</ele>
        <time>2011-08-30T21:30:51Z</time>
      </trkpt>
      <trkpt lat="59.4550451" lon="17.8037086">
        <ele>15.0377</ele>
        <time>2011-08-30T21:30:55Z</time>
      </trkpt>
      <trkpt lat="59.4550565" lon="17.803902">
        <ele>15.5184</ele>
        <time>2011-08-30T21:30:58Z</time>
      </trkpt>
      <trkpt lat="59.4549828" lon="17.8041197">
        <ele>16.4797</ele>
        <time>2011-08-30T21:31:02Z</time>
      </trkpt>
      <trkpt lat="59.4548372" lon="17.8042682">
        <ele>16.4797</ele>
        <time>2011-08-30T21:31:07Z</time>
      </trkpt>
      <trkpt lat="59.4546277" lon="17.8043965">
        <ele>17.9218</ele>
        <time>2011-08-30T21:31:14Z</time>
      </trkpt>
      <trkpt lat="59.4544572" lon="17.8045624">
        <ele>17.9218</ele>
        <time>2011-08-30T21:31:20Z</time>
      </trkpt>
      <trkpt lat="59.4542899" lon="17.8047793">
        <ele>18.8831</ele>
        <time>2011-08-30T21:31:26Z</time>
      </trkpt>
      <trkpt lat="59.4541282" lon="17.8049884">
        <ele>19.8444</ele>
        <time>2011-08-30T21:31:32Z</time>
      </trkpt>
      <trkpt lat="59.4541437" lon="17.805151">
        <ele>20.325</ele>
        <time>2011-08-30T21:31:36Z</time>
      </trkpt>
      <trkpt lat="59.454218" lon="17.805098">
        <ele>20.8057</ele>
        <time>2011-08-30T21:31:39Z</time>
      </trkpt>
      <trkpt lat="59.4542676" lon="17.8050213">
        <ele>21.767</ele>
        <time>2011-08-30T21:31:41Z</time>
      </trkpt>
      <trkpt lat="59.4544611" lon="17.8047654">
        <ele>21.2864</ele>
        <time>2011-08-30T21:31:48Z</time>
      </trkpt>
      <trkpt lat="59.4546298" lon="17.8045478">
        <ele>20.325</ele>
        <time>2011-08-30T21:31:54Z</time>
      </trkpt>
      <trkpt lat="59.4547566" lon="17.8044324">
        <ele>20.8057</ele>
        <time>2011-08-30T21:31:58Z</time>
      </trkpt>
      <trkpt lat="59.4549198" lon="17.8043419">
        <ele>20.8057</ele>
        <time>2011-08-30T21:32:03Z</time>
      </trkpt>
      <trkpt lat="59.4550824" lon="17.8043154">
        <ele>21.767</ele>
        <time>2011-08-30T21:32:08Z</time>
      </trkpt>
      <trkpt lat="59.4552342" lon="17.8043065">
        <ele>23.6896</ele>
        <time>2011-08-30T21:32:13Z</time>
      </trkpt>
      <trkpt lat="59.4553625" lon="17.8043054">
        <ele>24.651</ele>
        <time>2011-08-30T21:32:17Z</time>
      </trkpt>
      <trkpt lat="59.4554974" lon="17.8043807">
        <ele>27.0543</ele>
        <time>2011-08-30T21:32:21Z</time>
      </trkpt>
      <trkpt lat="59.4556636" lon="17.8044651">
        <ele>28.9769</ele>
        <time>2011-08-30T21:32:26Z</time>
      </trkpt>
      <trkpt lat="59.4558502" lon="17.8046154">
        <ele>28.9769</ele>
        <time>2011-08-30T21:32:32Z</time>
      </trkpt>
      <trkpt lat="59.4559956" lon="17.8047541">
        <ele>29.9381</ele>
        <time>2011-08-30T21:32:37Z</time>
      </trkpt>
      <trkpt lat="59.4561619" lon="17.8048925">
        <ele>29.9381</ele>
        <time>2011-08-30T21:32:42Z</time>
      </trkpt>
      <trkpt lat="59.4563219" lon="17.8050276">
        <ele>30.4188</ele>
        <time>2011-08-30T21:32:47Z</time>
      </trkpt>
      <trkpt lat="59.4564874" lon="17.80515">
        <ele>30.4188</ele>
        <time>2011-08-30T21:32:52Z</time>
      </trkpt>
      <trkpt lat="59.4566549" lon="17.805254">
        <ele>30.4188</ele>
        <time>2011-08-30T21:32:57Z</time>
      </trkpt>
      <trkpt lat="59.456839" lon="17.8053441">
        <ele>28.4962</ele>
        <time>2011-08-30T21:33:02Z</time>
      </trkpt>
      <trkpt lat="59.456966" lon="17.8054411">
        <ele>28.9769</ele>
        <time>2011-08-30T21:33:06Z</time>
      </trkpt>
      <trkpt lat="59.457099" lon="17.8054387">
        <ele>28.4962</ele>
        <time>2011-08-30T21:33:10Z</time>
      </trkpt>
      <trkpt lat="59.457204" lon="17.8052812">
        <ele>28.0155</ele>
        <time>2011-08-30T21:33:14Z</time>
      </trkpt>
      <trkpt lat="59.4573672" lon="17.8049739">
        <ele>28.0155</ele>
        <time>2011-08-30T21:33:20Z</time>
      </trkpt>
      <trkpt lat="59.4575097" lon="17.804749">
        <ele>27.5349</ele>
        <time>2011-08-30T21:33:25Z</time>
      </trkpt>
      <trkpt lat="59.4577098" lon="17.8045231">
        <ele>25.6123</ele>
        <time>2011-08-30T21:33:31Z</time>
      </trkpt>
      <trkpt lat="59.4578995" lon="17.8043986">
        <ele>24.1703</ele>
        <time>2011-08-30T21:33:36Z</time>
      </trkpt>
      <trkpt lat="59.4581077" lon="17.8043091">
        <ele>22.7283</ele>
        <time>2011-08-30T21:33:41Z</time>
      </trkpt>
      <trkpt lat="59.4583132" lon="17.804263">
        <ele>21.2864</ele>
        <time>2011-08-30T21:33:46Z</time>
      </trkpt>
      <trkpt lat="59.4584465" lon="17.8042488">
        <ele>21.767</ele>
        <time>2011-08-30T21:33:50Z</time>
      </trkpt>
      <trkpt lat="59.4587023" lon="17.8042972">
        <ele>23.6896</ele>
        <time>2011-08-30T21:33:57Z</time>
      </trkpt>
      <trkpt lat="59.4588943" lon="17.8042377">
        <ele>24.1703</ele>
        <time>2011-08-30T21:34:03Z</time>
      </trkpt>
    </trkseg>
  </trk>
</gpx>